<?xml version="1.0" encoding="UTF-8" standalone="no" ?>
<gpx xmlns="http://www.topografix.com/GPX/1/1" xmlns:xsi="http://www.w3.org/2001/XMLSchema-instance" xsi:schemaLocation="http://www.topografix.com/GPX/1/1 http://www.topografix.com/GPX/1/1/gpx.xsd" version="1.1" creator="VisuGPX - https://www.visugpx.com">
  <metadata>
    <name>Perso-HteMarne-23-07-02-IsEnBassigny-Essey-Ninville-Les Etiquets-Is</name>
    <desc><![CDATA[Rando dans mon Bassigny]]></desc>
  </metadata>
  <trk>
    <name><![CDATA[23-07-02-Is en Bassigny-Rando de Jean Claude]]></name>
    <trkseg>
      <trkpt lat="48.03252" lon="5.44722">
        <ele>394</ele>
        <time>2023-07-02T05:58:22Z</time>
      </trkpt>
      <trkpt lat="48.03253" lon="5.44723">
        <ele>395</ele>
        <time>2023-07-02T05:58:42Z</time>
      </trkpt>
      <trkpt lat="48.03254" lon="5.44726">
        <ele>394</ele>
        <time>2023-07-02T05:59:01Z</time>
      </trkpt>
      <trkpt lat="48.03252" lon="5.44727">
        <ele>395</ele>
        <time>2023-07-02T05:59:19Z</time>
      </trkpt>
      <trkpt lat="48.03255" lon="5.44728">
        <ele>394</ele>
        <time>2023-07-02T05:59:40Z</time>
      </trkpt>
      <trkpt lat="48.03253" lon="5.44727">
        <ele>394</ele>
        <time>2023-07-02T06:00:02Z</time>
      </trkpt>
      <trkpt lat="48.03255" lon="5.44725">
        <ele>395</ele>
        <time>2023-07-02T06:00:18Z</time>
      </trkpt>
      <trkpt lat="48.03255" lon="5.44726">
        <ele>394</ele>
        <time>2023-07-02T06:00:39Z</time>
      </trkpt>
      <trkpt lat="48.03252" lon="5.44728">
        <ele>394</ele>
        <time>2023-07-02T06:01:15Z</time>
      </trkpt>
      <trkpt lat="48.03252" lon="5.44734">
        <ele>395</ele>
        <time>2023-07-02T06:01:50Z</time>
      </trkpt>
      <trkpt lat="48.03257" lon="5.44728">
        <ele>394</ele>
        <time>2023-07-02T06:02:04Z</time>
      </trkpt>
      <trkpt lat="48.03258" lon="5.44734">
        <ele>394</ele>
        <time>2023-07-02T06:02:22Z</time>
      </trkpt>
      <trkpt lat="48.03258" lon="5.44736">
        <ele>395</ele>
        <time>2023-07-02T06:02:45Z</time>
      </trkpt>
      <trkpt lat="48.03256" lon="5.44735">
        <ele>394</ele>
        <time>2023-07-02T06:03:04Z</time>
      </trkpt>
      <trkpt lat="48.03255" lon="5.44732">
        <ele>395</ele>
        <time>2023-07-02T06:03:26Z</time>
      </trkpt>
      <trkpt lat="48.03255" lon="5.44738">
        <ele>395</ele>
        <time>2023-07-02T06:03:49Z</time>
      </trkpt>
      <trkpt lat="48.03254" lon="5.44754">
        <ele>395</ele>
        <time>2023-07-02T06:04:05Z</time>
      </trkpt>
      <trkpt lat="48.03254" lon="5.44769">
        <ele>395</ele>
        <time>2023-07-02T06:04:17Z</time>
      </trkpt>
      <trkpt lat="48.0326" lon="5.44793">
        <ele>395</ele>
        <time>2023-07-02T06:04:34Z</time>
      </trkpt>
      <trkpt lat="48.03262" lon="5.44812">
        <ele>396</ele>
        <time>2023-07-02T06:04:48Z</time>
      </trkpt>
      <trkpt lat="48.03259" lon="5.44843">
        <ele>397</ele>
        <time>2023-07-02T06:05:06Z</time>
      </trkpt>
      <trkpt lat="48.03258" lon="5.44856">
        <ele>398</ele>
        <time>2023-07-02T06:05:14Z</time>
      </trkpt>
      <trkpt lat="48.03254" lon="5.44881">
        <ele>398</ele>
        <time>2023-07-02T06:05:27Z</time>
      </trkpt>
      <trkpt lat="48.03243" lon="5.44906">
        <ele>398</ele>
        <time>2023-07-02T06:05:44Z</time>
      </trkpt>
      <trkpt lat="48.03233" lon="5.44935">
        <ele>398</ele>
        <time>2023-07-02T06:06:02Z</time>
      </trkpt>
      <trkpt lat="48.03231" lon="5.44949">
        <ele>399</ele>
        <time>2023-07-02T06:06:11Z</time>
      </trkpt>
      <trkpt lat="48.03225" lon="5.44981">
        <ele>399</ele>
        <time>2023-07-02T06:06:28Z</time>
      </trkpt>
      <trkpt lat="48.03217" lon="5.45017">
        <ele>399</ele>
        <time>2023-07-02T06:06:48Z</time>
      </trkpt>
      <trkpt lat="48.03208" lon="5.45047">
        <ele>400</ele>
        <time>2023-07-02T06:07:06Z</time>
      </trkpt>
      <trkpt lat="48.03204" lon="5.45085">
        <ele>400</ele>
        <time>2023-07-02T06:07:26Z</time>
      </trkpt>
      <trkpt lat="48.03191" lon="5.45117">
        <ele>399</ele>
        <time>2023-07-02T06:07:47Z</time>
      </trkpt>
      <trkpt lat="48.03177" lon="5.45146">
        <ele>400</ele>
        <time>2023-07-02T06:08:06Z</time>
      </trkpt>
      <trkpt lat="48.03165" lon="5.45181">
        <ele>399</ele>
        <time>2023-07-02T06:08:27Z</time>
      </trkpt>
      <trkpt lat="48.03152" lon="5.45208">
        <ele>401</ele>
        <time>2023-07-02T06:08:45Z</time>
      </trkpt>
      <trkpt lat="48.03134" lon="5.45242">
        <ele>401</ele>
        <time>2023-07-02T06:09:06Z</time>
      </trkpt>
      <trkpt lat="48.03116" lon="5.45275">
        <ele>401</ele>
        <time>2023-07-02T06:09:30Z</time>
      </trkpt>
      <trkpt lat="48.03105" lon="5.45302">
        <ele>401</ele>
        <time>2023-07-02T06:09:48Z</time>
      </trkpt>
      <trkpt lat="48.03098" lon="5.45315">
        <ele>401</ele>
        <time>2023-07-02T06:09:56Z</time>
      </trkpt>
      <trkpt lat="48.0308" lon="5.45344">
        <ele>402</ele>
        <time>2023-07-02T06:10:18Z</time>
      </trkpt>
      <trkpt lat="48.03066" lon="5.45368">
        <ele>402</ele>
        <time>2023-07-02T06:10:37Z</time>
      </trkpt>
      <trkpt lat="48.03054" lon="5.45389">
        <ele>402</ele>
        <time>2023-07-02T06:10:54Z</time>
      </trkpt>
      <trkpt lat="48.03051" lon="5.45396">
        <ele>403</ele>
        <time>2023-07-02T06:11:00Z</time>
      </trkpt>
      <trkpt lat="48.0305" lon="5.45398">
        <ele>402</ele>
        <time>2023-07-02T06:11:02Z</time>
      </trkpt>
      <trkpt lat="48.03039" lon="5.45419">
        <ele>403</ele>
        <time>2023-07-02T06:11:23Z</time>
      </trkpt>
      <trkpt lat="48.03037" lon="5.45424">
        <ele>402</ele>
        <time>2023-07-02T06:11:28Z</time>
      </trkpt>
      <trkpt lat="48.03022" lon="5.45456">
        <ele>403</ele>
        <time>2023-07-02T06:11:48Z</time>
      </trkpt>
      <trkpt lat="48.03006" lon="5.45491">
        <ele>404</ele>
        <time>2023-07-02T06:12:10Z</time>
      </trkpt>
      <trkpt lat="48.02989" lon="5.45525">
        <ele>404</ele>
        <time>2023-07-02T06:12:32Z</time>
      </trkpt>
      <trkpt lat="48.02971" lon="5.45557">
        <ele>405</ele>
        <time>2023-07-02T06:12:54Z</time>
      </trkpt>
      <trkpt lat="48.02952" lon="5.45591">
        <ele>405</ele>
        <time>2023-07-02T06:13:17Z</time>
      </trkpt>
      <trkpt lat="48.02937" lon="5.4562">
        <ele>404</ele>
        <time>2023-07-02T06:13:37Z</time>
      </trkpt>
      <trkpt lat="48.02916" lon="5.45652">
        <ele>404</ele>
        <time>2023-07-02T06:14:01Z</time>
      </trkpt>
      <trkpt lat="48.02894" lon="5.45682">
        <ele>404</ele>
        <time>2023-07-02T06:14:25Z</time>
      </trkpt>
      <trkpt lat="48.02872" lon="5.45708">
        <ele>405</ele>
        <time>2023-07-02T06:14:47Z</time>
      </trkpt>
      <trkpt lat="48.02851" lon="5.45736">
        <ele>405</ele>
        <time>2023-07-02T06:15:10Z</time>
      </trkpt>
      <trkpt lat="48.02837" lon="5.45756">
        <ele>405</ele>
        <time>2023-07-02T06:15:28Z</time>
      </trkpt>
      <trkpt lat="48.02835" lon="5.45758">
        <ele>405</ele>
        <time>2023-07-02T06:15:37Z</time>
      </trkpt>
      <trkpt lat="48.02823" lon="5.45788">
        <ele>405</ele>
        <time>2023-07-02T06:15:56Z</time>
      </trkpt>
      <trkpt lat="48.02809" lon="5.45823">
        <ele>406</ele>
        <time>2023-07-02T06:16:18Z</time>
      </trkpt>
      <trkpt lat="48.02797" lon="5.45864">
        <ele>406</ele>
        <time>2023-07-02T06:16:42Z</time>
      </trkpt>
      <trkpt lat="48.02787" lon="5.4589">
        <ele>407</ele>
        <time>2023-07-02T06:16:59Z</time>
      </trkpt>
      <trkpt lat="48.02779" lon="5.45922">
        <ele>406</ele>
        <time>2023-07-02T06:17:18Z</time>
      </trkpt>
      <trkpt lat="48.02778" lon="5.45959">
        <ele>408</ele>
        <time>2023-07-02T06:17:38Z</time>
      </trkpt>
      <trkpt lat="48.02772" lon="5.45993">
        <ele>408</ele>
        <time>2023-07-02T06:17:57Z</time>
      </trkpt>
      <trkpt lat="48.02762" lon="5.46024">
        <ele>407</ele>
        <time>2023-07-02T06:18:17Z</time>
      </trkpt>
      <trkpt lat="48.02748" lon="5.46056">
        <ele>408</ele>
        <time>2023-07-02T06:18:38Z</time>
      </trkpt>
      <trkpt lat="48.02733" lon="5.46094">
        <ele>409</ele>
        <time>2023-07-02T06:19:01Z</time>
      </trkpt>
      <trkpt lat="48.02723" lon="5.46118">
        <ele>409</ele>
        <time>2023-07-02T06:19:18Z</time>
      </trkpt>
      <trkpt lat="48.02713" lon="5.4615">
        <ele>412</ele>
        <time>2023-07-02T06:19:37Z</time>
      </trkpt>
      <trkpt lat="48.02708" lon="5.4618">
        <ele>412</ele>
        <time>2023-07-02T06:19:55Z</time>
      </trkpt>
      <trkpt lat="48.02702" lon="5.46215">
        <ele>413</ele>
        <time>2023-07-02T06:20:15Z</time>
      </trkpt>
      <trkpt lat="48.02697" lon="5.46253">
        <ele>414</ele>
        <time>2023-07-02T06:20:36Z</time>
      </trkpt>
      <trkpt lat="48.02693" lon="5.46285">
        <ele>415</ele>
        <time>2023-07-02T06:20:54Z</time>
      </trkpt>
      <trkpt lat="48.02687" lon="5.46316">
        <ele>416</ele>
        <time>2023-07-02T06:21:12Z</time>
      </trkpt>
      <trkpt lat="48.02682" lon="5.46349">
        <ele>417</ele>
        <time>2023-07-02T06:21:31Z</time>
      </trkpt>
      <trkpt lat="48.02677" lon="5.46381">
        <ele>417</ele>
        <time>2023-07-02T06:21:49Z</time>
      </trkpt>
      <trkpt lat="48.02672" lon="5.4641">
        <ele>418</ele>
        <time>2023-07-02T06:22:05Z</time>
      </trkpt>
      <trkpt lat="48.0267" lon="5.46435">
        <ele>418</ele>
        <time>2023-07-02T06:22:20Z</time>
      </trkpt>
      <trkpt lat="48.02665" lon="5.46464">
        <ele>419</ele>
        <time>2023-07-02T06:22:37Z</time>
      </trkpt>
      <trkpt lat="48.0266" lon="5.465">
        <ele>421</ele>
        <time>2023-07-02T06:22:56Z</time>
      </trkpt>
      <trkpt lat="48.02655" lon="5.4654">
        <ele>422</ele>
        <time>2023-07-02T06:23:18Z</time>
      </trkpt>
      <trkpt lat="48.02652" lon="5.46574">
        <ele>422</ele>
        <time>2023-07-02T06:23:36Z</time>
      </trkpt>
      <trkpt lat="48.0265" lon="5.46609">
        <ele>423</ele>
        <time>2023-07-02T06:23:55Z</time>
      </trkpt>
      <trkpt lat="48.02649" lon="5.46648">
        <ele>424</ele>
        <time>2023-07-02T06:24:15Z</time>
      </trkpt>
      <trkpt lat="48.02644" lon="5.46678">
        <ele>425</ele>
        <time>2023-07-02T06:24:33Z</time>
      </trkpt>
      <trkpt lat="48.02641" lon="5.46715">
        <ele>425</ele>
        <time>2023-07-02T06:24:53Z</time>
      </trkpt>
      <trkpt lat="48.02639" lon="5.46725">
        <ele>426</ele>
        <time>2023-07-02T06:25:09Z</time>
      </trkpt>
      <trkpt lat="48.02633" lon="5.46761">
        <ele>426</ele>
        <time>2023-07-02T06:25:27Z</time>
      </trkpt>
      <trkpt lat="48.02626" lon="5.46802">
        <ele>426</ele>
        <time>2023-07-02T06:25:50Z</time>
      </trkpt>
      <trkpt lat="48.02619" lon="5.46851">
        <ele>426</ele>
        <time>2023-07-02T06:26:16Z</time>
      </trkpt>
      <trkpt lat="48.02616" lon="5.46891">
        <ele>428</ele>
        <time>2023-07-02T06:26:37Z</time>
      </trkpt>
      <trkpt lat="48.02613" lon="5.46928">
        <ele>428</ele>
        <time>2023-07-02T06:26:56Z</time>
      </trkpt>
      <trkpt lat="48.02608" lon="5.46972">
        <ele>428</ele>
        <time>2023-07-02T06:27:19Z</time>
      </trkpt>
      <trkpt lat="48.02603" lon="5.47007">
        <ele>429</ele>
        <time>2023-07-02T06:27:38Z</time>
      </trkpt>
      <trkpt lat="48.026" lon="5.47016">
        <ele>429</ele>
        <time>2023-07-02T06:27:54Z</time>
      </trkpt>
      <trkpt lat="48.02587" lon="5.47049">
        <ele>429</ele>
        <time>2023-07-02T06:28:12Z</time>
      </trkpt>
      <trkpt lat="48.02573" lon="5.47081">
        <ele>431</ele>
        <time>2023-07-02T06:28:31Z</time>
      </trkpt>
      <trkpt lat="48.02557" lon="5.47113">
        <ele>432</ele>
        <time>2023-07-02T06:28:53Z</time>
      </trkpt>
      <trkpt lat="48.02543" lon="5.47145">
        <ele>433</ele>
        <time>2023-07-02T06:29:13Z</time>
      </trkpt>
      <trkpt lat="48.0252" lon="5.47179">
        <ele>433</ele>
        <time>2023-07-02T06:29:37Z</time>
      </trkpt>
      <trkpt lat="48.02499" lon="5.47214">
        <ele>433</ele>
        <time>2023-07-02T06:30:00Z</time>
      </trkpt>
      <trkpt lat="48.02479" lon="5.47249">
        <ele>435</ele>
        <time>2023-07-02T06:30:24Z</time>
      </trkpt>
      <trkpt lat="48.02463" lon="5.4728">
        <ele>435</ele>
        <time>2023-07-02T06:30:45Z</time>
      </trkpt>
      <trkpt lat="48.02444" lon="5.4731">
        <ele>436</ele>
        <time>2023-07-02T06:31:06Z</time>
      </trkpt>
      <trkpt lat="48.02426" lon="5.47341">
        <ele>437</ele>
        <time>2023-07-02T06:31:28Z</time>
      </trkpt>
      <trkpt lat="48.02405" lon="5.47381">
        <ele>438</ele>
        <time>2023-07-02T06:31:54Z</time>
      </trkpt>
      <trkpt lat="48.02386" lon="5.4741">
        <ele>438</ele>
        <time>2023-07-02T06:32:15Z</time>
      </trkpt>
      <trkpt lat="48.02373" lon="5.47448">
        <ele>439</ele>
        <time>2023-07-02T06:32:37Z</time>
      </trkpt>
      <trkpt lat="48.0237" lon="5.4749">
        <ele>439</ele>
        <time>2023-07-02T06:32:59Z</time>
      </trkpt>
      <trkpt lat="48.02371" lon="5.47531">
        <ele>440</ele>
        <time>2023-07-02T06:33:22Z</time>
      </trkpt>
      <trkpt lat="48.02371" lon="5.47537">
        <ele>442</ele>
        <time>2023-07-02T06:33:29Z</time>
      </trkpt>
      <trkpt lat="48.02371" lon="5.47539">
        <ele>441</ele>
        <time>2023-07-02T06:33:49Z</time>
      </trkpt>
      <trkpt lat="48.02372" lon="5.47541">
        <ele>442</ele>
        <time>2023-07-02T06:34:15Z</time>
      </trkpt>
      <trkpt lat="48.02371" lon="5.47543">
        <ele>440</ele>
        <time>2023-07-02T06:34:33Z</time>
      </trkpt>
      <trkpt lat="48.02371" lon="5.47549">
        <ele>440</ele>
        <time>2023-07-02T06:34:52Z</time>
      </trkpt>
      <trkpt lat="48.02379" lon="5.4758">
        <ele>440</ele>
        <time>2023-07-02T06:35:12Z</time>
      </trkpt>
      <trkpt lat="48.02383" lon="5.47602">
        <ele>439</ele>
        <time>2023-07-02T06:35:30Z</time>
      </trkpt>
      <trkpt lat="48.02388" lon="5.47637">
        <ele>439</ele>
        <time>2023-07-02T06:35:48Z</time>
      </trkpt>
      <trkpt lat="48.02391" lon="5.47661">
        <ele>438</ele>
        <time>2023-07-02T06:36:02Z</time>
      </trkpt>
      <trkpt lat="48.02394" lon="5.477">
        <ele>436</ele>
        <time>2023-07-02T06:36:22Z</time>
      </trkpt>
      <trkpt lat="48.02393" lon="5.47739">
        <ele>434</ele>
        <time>2023-07-02T06:36:44Z</time>
      </trkpt>
      <trkpt lat="48.02388" lon="5.47789">
        <ele>432</ele>
        <time>2023-07-02T06:37:09Z</time>
      </trkpt>
      <trkpt lat="48.02383" lon="5.4783">
        <ele>431</ele>
        <time>2023-07-02T06:37:31Z</time>
      </trkpt>
      <trkpt lat="48.02377" lon="5.47862">
        <ele>429</ele>
        <time>2023-07-02T06:37:50Z</time>
      </trkpt>
      <trkpt lat="48.02376" lon="5.4787">
        <ele>428</ele>
        <time>2023-07-02T06:37:54Z</time>
      </trkpt>
      <trkpt lat="48.02372" lon="5.47891">
        <ele>427</ele>
        <time>2023-07-02T06:38:09Z</time>
      </trkpt>
      <trkpt lat="48.02367" lon="5.47923">
        <ele>426</ele>
        <time>2023-07-02T06:38:26Z</time>
      </trkpt>
      <trkpt lat="48.0236" lon="5.47964">
        <ele>426</ele>
        <time>2023-07-02T06:38:48Z</time>
      </trkpt>
      <trkpt lat="48.0236" lon="5.48006">
        <ele>426</ele>
        <time>2023-07-02T06:39:10Z</time>
      </trkpt>
      <trkpt lat="48.02358" lon="5.4804">
        <ele>429</ele>
        <time>2023-07-02T06:39:30Z</time>
      </trkpt>
      <trkpt lat="48.02352" lon="5.4807">
        <ele>431</ele>
        <time>2023-07-02T06:39:48Z</time>
      </trkpt>
      <trkpt lat="48.02347" lon="5.48102">
        <ele>432</ele>
        <time>2023-07-02T06:40:06Z</time>
      </trkpt>
      <trkpt lat="48.0234" lon="5.48131">
        <ele>433</ele>
        <time>2023-07-02T06:40:22Z</time>
      </trkpt>
      <trkpt lat="48.02333" lon="5.48158">
        <ele>433</ele>
        <time>2023-07-02T06:40:39Z</time>
      </trkpt>
      <trkpt lat="48.02325" lon="5.4817">
        <ele>435</ele>
        <time>2023-07-02T06:40:51Z</time>
      </trkpt>
      <trkpt lat="48.02301" lon="5.48156">
        <ele>435</ele>
        <time>2023-07-02T06:41:11Z</time>
      </trkpt>
      <trkpt lat="48.02273" lon="5.48141">
        <ele>436</ele>
        <time>2023-07-02T06:41:34Z</time>
      </trkpt>
      <trkpt lat="48.0227" lon="5.48139">
        <ele>434</ele>
        <time>2023-07-02T06:41:37Z</time>
      </trkpt>
      <trkpt lat="48.02263" lon="5.48136">
        <ele>434</ele>
        <time>2023-07-02T06:41:44Z</time>
      </trkpt>
      <trkpt lat="48.02256" lon="5.48133">
        <ele>435</ele>
        <time>2023-07-02T06:41:49Z</time>
      </trkpt>
      <trkpt lat="48.02243" lon="5.48124">
        <ele>433</ele>
        <time>2023-07-02T06:42:00Z</time>
      </trkpt>
      <trkpt lat="48.02216" lon="5.48112">
        <ele>434</ele>
        <time>2023-07-02T06:42:23Z</time>
      </trkpt>
      <trkpt lat="48.02187" lon="5.48093">
        <ele>434</ele>
        <time>2023-07-02T06:42:47Z</time>
      </trkpt>
      <trkpt lat="48.02162" lon="5.48078">
        <ele>433</ele>
        <time>2023-07-02T06:43:08Z</time>
      </trkpt>
      <trkpt lat="48.02145" lon="5.48069">
        <ele>438</ele>
        <time>2023-07-02T06:43:23Z</time>
      </trkpt>
      <trkpt lat="48.02143" lon="5.48068">
        <ele>438</ele>
        <time>2023-07-02T06:43:24Z</time>
      </trkpt>
      <trkpt lat="48.0214" lon="5.48067">
        <ele>437</ele>
        <time>2023-07-02T06:43:26Z</time>
      </trkpt>
      <trkpt lat="48.0213" lon="5.48062">
        <ele>434</ele>
        <time>2023-07-02T06:43:35Z</time>
      </trkpt>
      <trkpt lat="48.02106" lon="5.48047">
        <ele>435</ele>
        <time>2023-07-02T06:43:55Z</time>
      </trkpt>
      <trkpt lat="48.0208" lon="5.4803">
        <ele>435</ele>
        <time>2023-07-02T06:44:18Z</time>
      </trkpt>
      <trkpt lat="48.02064" lon="5.48019">
        <ele>433</ele>
        <time>2023-07-02T06:44:32Z</time>
      </trkpt>
      <trkpt lat="48.02034" lon="5.48003">
        <ele>434</ele>
        <time>2023-07-02T06:44:56Z</time>
      </trkpt>
      <trkpt lat="48.02012" lon="5.47992">
        <ele>435</ele>
        <time>2023-07-02T06:45:14Z</time>
      </trkpt>
      <trkpt lat="48.01982" lon="5.47979">
        <ele>435</ele>
        <time>2023-07-02T06:45:39Z</time>
      </trkpt>
      <trkpt lat="48.01956" lon="5.47968">
        <ele>437</ele>
        <time>2023-07-02T06:46:01Z</time>
      </trkpt>
      <trkpt lat="48.01934" lon="5.47957">
        <ele>438</ele>
        <time>2023-07-02T06:46:20Z</time>
      </trkpt>
      <trkpt lat="48.0191" lon="5.47942">
        <ele>439</ele>
        <time>2023-07-02T06:46:41Z</time>
      </trkpt>
      <trkpt lat="48.01884" lon="5.47926">
        <ele>440</ele>
        <time>2023-07-02T06:47:04Z</time>
      </trkpt>
      <trkpt lat="48.01854" lon="5.47909">
        <ele>439</ele>
        <time>2023-07-02T06:47:29Z</time>
      </trkpt>
      <trkpt lat="48.0184" lon="5.47902">
        <ele>439</ele>
        <time>2023-07-02T06:47:40Z</time>
      </trkpt>
      <trkpt lat="48.01822" lon="5.47891">
        <ele>438</ele>
        <time>2023-07-02T06:47:55Z</time>
      </trkpt>
      <trkpt lat="48.01792" lon="5.4787">
        <ele>439</ele>
        <time>2023-07-02T06:48:20Z</time>
      </trkpt>
      <trkpt lat="48.01777" lon="5.4786">
        <ele>439</ele>
        <time>2023-07-02T06:48:33Z</time>
      </trkpt>
      <trkpt lat="48.01758" lon="5.47847">
        <ele>439</ele>
        <time>2023-07-02T06:48:54Z</time>
      </trkpt>
      <trkpt lat="48.01756" lon="5.47846">
        <ele>439</ele>
        <time>2023-07-02T06:48:56Z</time>
      </trkpt>
      <trkpt lat="48.01744" lon="5.47831">
        <ele>440</ele>
        <time>2023-07-02T06:49:09Z</time>
      </trkpt>
      <trkpt lat="48.01741" lon="5.47831">
        <ele>439</ele>
        <time>2023-07-02T06:49:11Z</time>
      </trkpt>
      <trkpt lat="48.01719" lon="5.47828">
        <ele>439</ele>
        <time>2023-07-02T06:49:31Z</time>
      </trkpt>
      <trkpt lat="48.01713" lon="5.47828">
        <ele>440</ele>
        <time>2023-07-02T06:49:49Z</time>
      </trkpt>
      <trkpt lat="48.01709" lon="5.47828">
        <ele>440</ele>
        <time>2023-07-02T06:50:03Z</time>
      </trkpt>
      <trkpt lat="48.01696" lon="5.47826">
        <ele>440</ele>
        <time>2023-07-02T06:50:19Z</time>
      </trkpt>
      <trkpt lat="48.01677" lon="5.47815">
        <ele>439</ele>
        <time>2023-07-02T06:50:36Z</time>
      </trkpt>
      <trkpt lat="48.01662" lon="5.47806">
        <ele>438</ele>
        <time>2023-07-02T06:50:48Z</time>
      </trkpt>
      <trkpt lat="48.01637" lon="5.47793">
        <ele>437</ele>
        <time>2023-07-02T06:51:09Z</time>
      </trkpt>
      <trkpt lat="48.01615" lon="5.47782">
        <ele>438</ele>
        <time>2023-07-02T06:51:29Z</time>
      </trkpt>
      <trkpt lat="48.01586" lon="5.47768">
        <ele>438</ele>
        <time>2023-07-02T06:51:52Z</time>
      </trkpt>
      <trkpt lat="48.01559" lon="5.47753">
        <ele>438</ele>
        <time>2023-07-02T06:52:14Z</time>
      </trkpt>
      <trkpt lat="48.01537" lon="5.47741">
        <ele>437</ele>
        <time>2023-07-02T06:52:33Z</time>
      </trkpt>
      <trkpt lat="48.01519" lon="5.47733">
        <ele>437</ele>
        <time>2023-07-02T06:52:47Z</time>
      </trkpt>
      <trkpt lat="48.01492" lon="5.47718">
        <ele>435</ele>
        <time>2023-07-02T06:53:09Z</time>
      </trkpt>
      <trkpt lat="48.01465" lon="5.47702">
        <ele>434</ele>
        <time>2023-07-02T06:53:33Z</time>
      </trkpt>
      <trkpt lat="48.01437" lon="5.47684">
        <ele>434</ele>
        <time>2023-07-02T06:53:56Z</time>
      </trkpt>
      <trkpt lat="48.0141" lon="5.4767">
        <ele>433</ele>
        <time>2023-07-02T06:54:18Z</time>
      </trkpt>
      <trkpt lat="48.01379" lon="5.47654">
        <ele>431</ele>
        <time>2023-07-02T06:54:44Z</time>
      </trkpt>
      <trkpt lat="48.0135" lon="5.47636">
        <ele>431</ele>
        <time>2023-07-02T06:55:08Z</time>
      </trkpt>
      <trkpt lat="48.01325" lon="5.47616">
        <ele>431</ele>
        <time>2023-07-02T06:55:32Z</time>
      </trkpt>
      <trkpt lat="48.01298" lon="5.47599">
        <ele>430</ele>
        <time>2023-07-02T06:55:54Z</time>
      </trkpt>
      <trkpt lat="48.01278" lon="5.47586">
        <ele>429</ele>
        <time>2023-07-02T06:56:12Z</time>
      </trkpt>
      <trkpt lat="48.01253" lon="5.47573">
        <ele>429</ele>
        <time>2023-07-02T06:56:33Z</time>
      </trkpt>
      <trkpt lat="48.01228" lon="5.4756">
        <ele>428</ele>
        <time>2023-07-02T06:56:54Z</time>
      </trkpt>
      <trkpt lat="48.01196" lon="5.47543">
        <ele>428</ele>
        <time>2023-07-02T06:57:19Z</time>
      </trkpt>
      <trkpt lat="48.0117" lon="5.47528">
        <ele>428</ele>
        <time>2023-07-02T06:57:40Z</time>
      </trkpt>
      <trkpt lat="48.01147" lon="5.47513">
        <ele>428</ele>
        <time>2023-07-02T06:58:00Z</time>
      </trkpt>
      <trkpt lat="48.01121" lon="5.47503">
        <ele>426</ele>
        <time>2023-07-02T06:58:20Z</time>
      </trkpt>
      <trkpt lat="48.0112" lon="5.47503">
        <ele>426</ele>
        <time>2023-07-02T06:58:21Z</time>
      </trkpt>
      <trkpt lat="48.01097" lon="5.47487">
        <ele>426</ele>
        <time>2023-07-02T06:58:39Z</time>
      </trkpt>
      <trkpt lat="48.01077" lon="5.47478">
        <ele>425</ele>
        <time>2023-07-02T06:58:56Z</time>
      </trkpt>
      <trkpt lat="48.01054" lon="5.47467">
        <ele>423</ele>
        <time>2023-07-02T06:59:14Z</time>
      </trkpt>
      <trkpt lat="48.01039" lon="5.47457">
        <ele>424</ele>
        <time>2023-07-02T06:59:31Z</time>
      </trkpt>
      <trkpt lat="48.01035" lon="5.47451">
        <ele>424</ele>
        <time>2023-07-02T06:59:49Z</time>
      </trkpt>
      <trkpt lat="48.01037" lon="5.47454">
        <ele>424</ele>
        <time>2023-07-02T07:00:05Z</time>
      </trkpt>
      <trkpt lat="48.01038" lon="5.47452">
        <ele>424</ele>
        <time>2023-07-02T07:00:25Z</time>
      </trkpt>
      <trkpt lat="48.01038" lon="5.47455">
        <ele>424</ele>
        <time>2023-07-02T07:00:40Z</time>
      </trkpt>
      <trkpt lat="48.01038" lon="5.47448">
        <ele>424</ele>
        <time>2023-07-02T07:00:58Z</time>
      </trkpt>
      <trkpt lat="48.01035" lon="5.47447">
        <ele>424</ele>
        <time>2023-07-02T07:01:14Z</time>
      </trkpt>
      <trkpt lat="48.01037" lon="5.47446">
        <ele>424</ele>
        <time>2023-07-02T07:01:34Z</time>
      </trkpt>
      <trkpt lat="48.01036" lon="5.47438">
        <ele>424</ele>
        <time>2023-07-02T07:01:49Z</time>
      </trkpt>
      <trkpt lat="48.0104" lon="5.47427">
        <ele>424</ele>
        <time>2023-07-02T07:02:02Z</time>
      </trkpt>
      <trkpt lat="48.01046" lon="5.47394">
        <ele>424</ele>
        <time>2023-07-02T07:02:22Z</time>
      </trkpt>
      <trkpt lat="48.01055" lon="5.47366">
        <ele>424</ele>
        <time>2023-07-02T07:02:39Z</time>
      </trkpt>
      <trkpt lat="48.01065" lon="5.47332">
        <ele>424</ele>
        <time>2023-07-02T07:03:01Z</time>
      </trkpt>
      <trkpt lat="48.01074" lon="5.47294">
        <ele>425</ele>
        <time>2023-07-02T07:03:23Z</time>
      </trkpt>
      <trkpt lat="48.01084" lon="5.47253">
        <ele>426</ele>
        <time>2023-07-02T07:03:46Z</time>
      </trkpt>
      <trkpt lat="48.01089" lon="5.47212">
        <ele>426</ele>
        <time>2023-07-02T07:04:08Z</time>
      </trkpt>
      <trkpt lat="48.01094" lon="5.4717">
        <ele>427</ele>
        <time>2023-07-02T07:04:31Z</time>
      </trkpt>
      <trkpt lat="48.01098" lon="5.47132">
        <ele>428</ele>
        <time>2023-07-02T07:04:52Z</time>
      </trkpt>
      <trkpt lat="48.01096" lon="5.47095">
        <ele>427</ele>
        <time>2023-07-02T07:05:12Z</time>
      </trkpt>
      <trkpt lat="48.01095" lon="5.47082">
        <ele>428</ele>
        <time>2023-07-02T07:05:19Z</time>
      </trkpt>
      <trkpt lat="48.01085" lon="5.47044">
        <ele>428</ele>
        <time>2023-07-02T07:05:41Z</time>
      </trkpt>
      <trkpt lat="48.0107" lon="5.47002">
        <ele>427</ele>
        <time>2023-07-02T07:06:06Z</time>
      </trkpt>
      <trkpt lat="48.01056" lon="5.46964">
        <ele>428</ele>
        <time>2023-07-02T07:06:29Z</time>
      </trkpt>
      <trkpt lat="48.01046" lon="5.46934">
        <ele>427</ele>
        <time>2023-07-02T07:06:48Z</time>
      </trkpt>
      <trkpt lat="48.01033" lon="5.46901">
        <ele>428</ele>
        <time>2023-07-02T07:07:08Z</time>
      </trkpt>
      <trkpt lat="48.01018" lon="5.46866">
        <ele>428</ele>
        <time>2023-07-02T07:07:30Z</time>
      </trkpt>
      <trkpt lat="48.01011" lon="5.46832">
        <ele>429</ele>
        <time>2023-07-02T07:07:50Z</time>
      </trkpt>
      <trkpt lat="48.01009" lon="5.46818">
        <ele>427</ele>
        <time>2023-07-02T07:07:58Z</time>
      </trkpt>
      <trkpt lat="48.01005" lon="5.46788">
        <ele>429</ele>
        <time>2023-07-02T07:08:16Z</time>
      </trkpt>
      <trkpt lat="48.01002" lon="5.46756">
        <ele>428</ele>
        <time>2023-07-02T07:08:34Z</time>
      </trkpt>
      <trkpt lat="48.00996" lon="5.46722">
        <ele>429</ele>
        <time>2023-07-02T07:08:53Z</time>
      </trkpt>
      <trkpt lat="48.00989" lon="5.46684">
        <ele>429</ele>
        <time>2023-07-02T07:09:14Z</time>
      </trkpt>
      <trkpt lat="48.00982" lon="5.46651">
        <ele>428</ele>
        <time>2023-07-02T07:09:33Z</time>
      </trkpt>
      <trkpt lat="48.0097" lon="5.46614">
        <ele>428</ele>
        <time>2023-07-02T07:09:55Z</time>
      </trkpt>
      <trkpt lat="48.00957" lon="5.46578">
        <ele>429</ele>
        <time>2023-07-02T07:10:16Z</time>
      </trkpt>
      <trkpt lat="48.00953" lon="5.46568">
        <ele>429</ele>
        <time>2023-07-02T07:10:22Z</time>
      </trkpt>
      <trkpt lat="48.00947" lon="5.46554">
        <ele>429</ele>
        <time>2023-07-02T07:10:30Z</time>
      </trkpt>
      <trkpt lat="48.00938" lon="5.46526">
        <ele>428</ele>
        <time>2023-07-02T07:10:46Z</time>
      </trkpt>
      <trkpt lat="48.00924" lon="5.46493">
        <ele>429</ele>
        <time>2023-07-02T07:11:05Z</time>
      </trkpt>
      <trkpt lat="48.00908" lon="5.46456">
        <ele>427</ele>
        <time>2023-07-02T07:11:27Z</time>
      </trkpt>
      <trkpt lat="48.00899" lon="5.46431">
        <ele>426</ele>
        <time>2023-07-02T07:11:42Z</time>
      </trkpt>
      <trkpt lat="48.0088" lon="5.4639">
        <ele>426</ele>
        <time>2023-07-02T07:12:07Z</time>
      </trkpt>
      <trkpt lat="48.00869" lon="5.46372">
        <ele>426</ele>
        <time>2023-07-02T07:12:20Z</time>
      </trkpt>
      <trkpt lat="48.00844" lon="5.46341">
        <ele>425</ele>
        <time>2023-07-02T07:12:43Z</time>
      </trkpt>
      <trkpt lat="48.00818" lon="5.46311">
        <ele>425</ele>
        <time>2023-07-02T07:13:07Z</time>
      </trkpt>
      <trkpt lat="48.00803" lon="5.46277">
        <ele>424</ele>
        <time>2023-07-02T07:13:28Z</time>
      </trkpt>
      <trkpt lat="48.00801" lon="5.46236">
        <ele>423</ele>
        <time>2023-07-02T07:13:49Z</time>
      </trkpt>
      <trkpt lat="48.00803" lon="5.46189">
        <ele>422</ele>
        <time>2023-07-02T07:14:11Z</time>
      </trkpt>
      <trkpt lat="48.00811" lon="5.46153">
        <ele>421</ele>
        <time>2023-07-02T07:14:30Z</time>
      </trkpt>
      <trkpt lat="48.00819" lon="5.46136">
        <ele>421</ele>
        <time>2023-07-02T07:14:49Z</time>
      </trkpt>
      <trkpt lat="48.00817" lon="5.46139">
        <ele>421</ele>
        <time>2023-07-02T07:15:18Z</time>
      </trkpt>
      <trkpt lat="48.0082" lon="5.4614">
        <ele>421</ele>
        <time>2023-07-02T07:15:45Z</time>
      </trkpt>
      <trkpt lat="48.00818" lon="5.46142">
        <ele>421</ele>
        <time>2023-07-02T07:16:12Z</time>
      </trkpt>
      <trkpt lat="48.00817" lon="5.4614">
        <ele>421</ele>
        <time>2023-07-02T07:16:37Z</time>
      </trkpt>
      <trkpt lat="48.00816" lon="5.46138">
        <ele>421</ele>
        <time>2023-07-02T07:17:00Z</time>
      </trkpt>
      <trkpt lat="48.00816" lon="5.4614">
        <ele>421</ele>
        <time>2023-07-02T07:17:25Z</time>
      </trkpt>
      <trkpt lat="48.00828" lon="5.46145">
        <ele>422</ele>
        <time>2023-07-02T07:17:45Z</time>
      </trkpt>
      <trkpt lat="48.0085" lon="5.46149">
        <ele>421</ele>
        <time>2023-07-02T07:18:03Z</time>
      </trkpt>
      <trkpt lat="48.00877" lon="5.46156">
        <ele>421</ele>
        <time>2023-07-02T07:18:23Z</time>
      </trkpt>
      <trkpt lat="48.00895" lon="5.46156">
        <ele>422</ele>
        <time>2023-07-02T07:18:40Z</time>
      </trkpt>
      <trkpt lat="48.00918" lon="5.46158">
        <ele>422</ele>
        <time>2023-07-02T07:18:57Z</time>
      </trkpt>
      <trkpt lat="48.00943" lon="5.46159">
        <ele>423</ele>
        <time>2023-07-02T07:19:16Z</time>
      </trkpt>
      <trkpt lat="48.00963" lon="5.46162">
        <ele>424</ele>
        <time>2023-07-02T07:19:32Z</time>
      </trkpt>
      <trkpt lat="48.0098" lon="5.46164">
        <ele>424</ele>
        <time>2023-07-02T07:19:48Z</time>
      </trkpt>
      <trkpt lat="48.00997" lon="5.46167">
        <ele>424</ele>
        <time>2023-07-02T07:20:07Z</time>
      </trkpt>
      <trkpt lat="48.01016" lon="5.4617">
        <ele>424</ele>
        <time>2023-07-02T07:20:23Z</time>
      </trkpt>
      <trkpt lat="48.01031" lon="5.46167">
        <ele>424</ele>
        <time>2023-07-02T07:20:35Z</time>
      </trkpt>
      <trkpt lat="48.01049" lon="5.4616">
        <ele>424</ele>
        <time>2023-07-02T07:20:52Z</time>
      </trkpt>
      <trkpt lat="48.01065" lon="5.46141">
        <ele>423</ele>
        <time>2023-07-02T07:21:07Z</time>
      </trkpt>
      <trkpt lat="48.01078" lon="5.46122">
        <ele>422</ele>
        <time>2023-07-02T07:21:22Z</time>
      </trkpt>
      <trkpt lat="48.01097" lon="5.46098">
        <ele>421</ele>
        <time>2023-07-02T07:21:37Z</time>
      </trkpt>
      <trkpt lat="48.01105" lon="5.46081">
        <ele>420</ele>
        <time>2023-07-02T07:21:46Z</time>
      </trkpt>
      <trkpt lat="48.01107" lon="5.46043">
        <ele>421</ele>
        <time>2023-07-02T07:22:04Z</time>
      </trkpt>
      <trkpt lat="48.01111" lon="5.46004">
        <ele>422</ele>
        <time>2023-07-02T07:22:23Z</time>
      </trkpt>
      <trkpt lat="48.01112" lon="5.45986">
        <ele>422</ele>
        <time>2023-07-02T07:22:32Z</time>
      </trkpt>
      <trkpt lat="48.01112" lon="5.45955">
        <ele>422</ele>
        <time>2023-07-02T07:22:48Z</time>
      </trkpt>
      <trkpt lat="48.01117" lon="5.45926">
        <ele>421</ele>
        <time>2023-07-02T07:23:03Z</time>
      </trkpt>
      <trkpt lat="48.01125" lon="5.45899">
        <ele>420</ele>
        <time>2023-07-02T07:23:17Z</time>
      </trkpt>
      <trkpt lat="48.01125" lon="5.45871">
        <ele>418</ele>
        <time>2023-07-02T07:23:31Z</time>
      </trkpt>
      <trkpt lat="48.01139" lon="5.45847">
        <ele>417</ele>
        <time>2023-07-02T07:23:46Z</time>
      </trkpt>
      <trkpt lat="48.01159" lon="5.45831">
        <ele>418</ele>
        <time>2023-07-02T07:24:03Z</time>
      </trkpt>
      <trkpt lat="48.01171" lon="5.45823">
        <ele>417</ele>
        <time>2023-07-02T07:24:13Z</time>
      </trkpt>
      <trkpt lat="48.01184" lon="5.45793">
        <ele>416</ele>
        <time>2023-07-02T07:24:30Z</time>
      </trkpt>
      <trkpt lat="48.01194" lon="5.45779">
        <ele>416</ele>
        <time>2023-07-02T07:24:40Z</time>
      </trkpt>
      <trkpt lat="48.01211" lon="5.45762">
        <ele>417</ele>
        <time>2023-07-02T07:24:55Z</time>
      </trkpt>
      <trkpt lat="48.01215" lon="5.45755">
        <ele>417</ele>
        <time>2023-07-02T07:25:01Z</time>
      </trkpt>
      <trkpt lat="48.01217" lon="5.45749">
        <ele>417</ele>
        <time>2023-07-02T07:25:04Z</time>
      </trkpt>
      <trkpt lat="48.01229" lon="5.45723">
        <ele>417</ele>
        <time>2023-07-02T07:25:18Z</time>
      </trkpt>
      <trkpt lat="48.01243" lon="5.45702">
        <ele>418</ele>
        <time>2023-07-02T07:25:33Z</time>
      </trkpt>
      <trkpt lat="48.01257" lon="5.45681">
        <ele>418</ele>
        <time>2023-07-02T07:25:48Z</time>
      </trkpt>
      <trkpt lat="48.0127" lon="5.45655">
        <ele>417</ele>
        <time>2023-07-02T07:26:03Z</time>
      </trkpt>
      <trkpt lat="48.01287" lon="5.45626">
        <ele>418</ele>
        <time>2023-07-02T07:26:20Z</time>
      </trkpt>
      <trkpt lat="48.0129" lon="5.45616">
        <ele>417</ele>
        <time>2023-07-02T07:26:26Z</time>
      </trkpt>
      <trkpt lat="48.01298" lon="5.45591">
        <ele>417</ele>
        <time>2023-07-02T07:26:42Z</time>
      </trkpt>
      <trkpt lat="48.01307" lon="5.45558">
        <ele>417</ele>
        <time>2023-07-02T07:26:57Z</time>
      </trkpt>
      <trkpt lat="48.01313" lon="5.45524">
        <ele>418</ele>
        <time>2023-07-02T07:27:12Z</time>
      </trkpt>
      <trkpt lat="48.01314" lon="5.45513">
        <ele>418</ele>
        <time>2023-07-02T07:27:17Z</time>
      </trkpt>
      <trkpt lat="48.01327" lon="5.45497">
        <ele>420</ele>
        <time>2023-07-02T07:27:33Z</time>
      </trkpt>
      <trkpt lat="48.0134" lon="5.45495">
        <ele>420</ele>
        <time>2023-07-02T07:27:44Z</time>
      </trkpt>
      <trkpt lat="48.01361" lon="5.455">
        <ele>420</ele>
        <time>2023-07-02T07:27:58Z</time>
      </trkpt>
      <trkpt lat="48.01384" lon="5.45502">
        <ele>421</ele>
        <time>2023-07-02T07:28:15Z</time>
      </trkpt>
      <trkpt lat="48.01408" lon="5.45505">
        <ele>422</ele>
        <time>2023-07-02T07:28:32Z</time>
      </trkpt>
      <trkpt lat="48.01433" lon="5.45503">
        <ele>422</ele>
        <time>2023-07-02T07:28:50Z</time>
      </trkpt>
      <trkpt lat="48.01458" lon="5.45506">
        <ele>421</ele>
        <time>2023-07-02T07:29:08Z</time>
      </trkpt>
      <trkpt lat="48.01482" lon="5.45505">
        <ele>420</ele>
        <time>2023-07-02T07:29:25Z</time>
      </trkpt>
      <trkpt lat="48.01506" lon="5.45509">
        <ele>419</ele>
        <time>2023-07-02T07:29:42Z</time>
      </trkpt>
      <trkpt lat="48.01531" lon="5.45503">
        <ele>420</ele>
        <time>2023-07-02T07:30:01Z</time>
      </trkpt>
      <trkpt lat="48.01543" lon="5.45491">
        <ele>421</ele>
        <time>2023-07-02T07:30:17Z</time>
      </trkpt>
      <trkpt lat="48.01541" lon="5.45492">
        <ele>421</ele>
        <time>2023-07-02T07:30:32Z</time>
      </trkpt>
      <trkpt lat="48.01537" lon="5.45499">
        <ele>420</ele>
        <time>2023-07-02T07:30:51Z</time>
      </trkpt>
      <trkpt lat="48.01539" lon="5.45493">
        <ele>421</ele>
        <time>2023-07-02T07:31:09Z</time>
      </trkpt>
      <trkpt lat="48.01542" lon="5.45484">
        <ele>420</ele>
        <time>2023-07-02T07:31:14Z</time>
      </trkpt>
      <trkpt lat="48.01547" lon="5.45473">
        <ele>422</ele>
        <time>2023-07-02T07:31:24Z</time>
      </trkpt>
      <trkpt lat="48.01554" lon="5.45457">
        <ele>422</ele>
        <time>2023-07-02T07:31:36Z</time>
      </trkpt>
      <trkpt lat="48.01568" lon="5.45433">
        <ele>422</ele>
        <time>2023-07-02T07:31:52Z</time>
      </trkpt>
      <trkpt lat="48.01584" lon="5.45399">
        <ele>422</ele>
        <time>2023-07-02T07:32:09Z</time>
      </trkpt>
      <trkpt lat="48.01595" lon="5.45365">
        <ele>422</ele>
        <time>2023-07-02T07:32:25Z</time>
      </trkpt>
      <trkpt lat="48.01597" lon="5.45356">
        <ele>422</ele>
        <time>2023-07-02T07:32:30Z</time>
      </trkpt>
      <trkpt lat="48.016" lon="5.45334">
        <ele>422</ele>
        <time>2023-07-02T07:32:45Z</time>
      </trkpt>
      <trkpt lat="48.01603" lon="5.45334">
        <ele>422</ele>
        <time>2023-07-02T07:32:51Z</time>
      </trkpt>
      <trkpt lat="48.01619" lon="5.45337">
        <ele>422</ele>
        <time>2023-07-02T07:33:09Z</time>
      </trkpt>
      <trkpt lat="48.01615" lon="5.45339">
        <ele>422</ele>
        <time>2023-07-02T07:33:40Z</time>
      </trkpt>
      <trkpt lat="48.01601" lon="5.45332">
        <ele>422</ele>
        <time>2023-07-02T07:33:57Z</time>
      </trkpt>
      <trkpt lat="48.01595" lon="5.45335">
        <ele>423</ele>
        <time>2023-07-02T07:34:17Z</time>
      </trkpt>
      <trkpt lat="48.01597" lon="5.45331">
        <ele>422</ele>
        <time>2023-07-02T07:34:35Z</time>
      </trkpt>
      <trkpt lat="48.01598" lon="5.45335">
        <ele>422</ele>
        <time>2023-07-02T07:34:58Z</time>
      </trkpt>
      <trkpt lat="48.01597" lon="5.45339">
        <ele>422</ele>
        <time>2023-07-02T07:35:23Z</time>
      </trkpt>
      <trkpt lat="48.01594" lon="5.45343">
        <ele>422</ele>
        <time>2023-07-02T07:35:50Z</time>
      </trkpt>
      <trkpt lat="48.0159" lon="5.45342">
        <ele>423</ele>
        <time>2023-07-02T07:36:23Z</time>
      </trkpt>
      <trkpt lat="48.01594" lon="5.45345">
        <ele>424</ele>
        <time>2023-07-02T07:36:53Z</time>
      </trkpt>
      <trkpt lat="48.01591" lon="5.45345">
        <ele>423</ele>
        <time>2023-07-02T07:37:15Z</time>
      </trkpt>
      <trkpt lat="48.01592" lon="5.45345">
        <ele>424</ele>
        <time>2023-07-02T07:37:40Z</time>
      </trkpt>
      <trkpt lat="48.01591" lon="5.45346">
        <ele>425</ele>
        <time>2023-07-02T07:38:08Z</time>
      </trkpt>
      <trkpt lat="48.01592" lon="5.45345">
        <ele>425</ele>
        <time>2023-07-02T07:38:30Z</time>
      </trkpt>
      <trkpt lat="48.01592" lon="5.45344">
        <ele>425</ele>
        <time>2023-07-02T07:38:54Z</time>
      </trkpt>
      <trkpt lat="48.01592" lon="5.45347">
        <ele>426</ele>
        <time>2023-07-02T07:39:22Z</time>
      </trkpt>
      <trkpt lat="48.01592" lon="5.45345">
        <ele>426</ele>
        <time>2023-07-02T07:39:49Z</time>
      </trkpt>
      <trkpt lat="48.01593" lon="5.45343">
        <ele>426</ele>
        <time>2023-07-02T07:40:16Z</time>
      </trkpt>
      <trkpt lat="48.01594" lon="5.45346">
        <ele>427</ele>
        <time>2023-07-02T07:40:49Z</time>
      </trkpt>
      <trkpt lat="48.01589" lon="5.45344">
        <ele>428</ele>
        <time>2023-07-02T07:41:27Z</time>
      </trkpt>
      <trkpt lat="48.0159" lon="5.45345">
        <ele>428</ele>
        <time>2023-07-02T07:41:57Z</time>
      </trkpt>
      <trkpt lat="48.01588" lon="5.45347">
        <ele>428</ele>
        <time>2023-07-02T07:42:30Z</time>
      </trkpt>
      <trkpt lat="48.01592" lon="5.45349">
        <ele>429</ele>
        <time>2023-07-02T07:42:56Z</time>
      </trkpt>
      <trkpt lat="48.01593" lon="5.45345">
        <ele>430</ele>
        <time>2023-07-02T07:43:15Z</time>
      </trkpt>
      <trkpt lat="48.01593" lon="5.4534">
        <ele>430</ele>
        <time>2023-07-02T07:43:37Z</time>
      </trkpt>
      <trkpt lat="48.01596" lon="5.45333">
        <ele>431</ele>
        <time>2023-07-02T07:44:03Z</time>
      </trkpt>
      <trkpt lat="48.01592" lon="5.45332">
        <ele>431</ele>
        <time>2023-07-02T07:44:34Z</time>
      </trkpt>
      <trkpt lat="48.01594" lon="5.45336">
        <ele>431</ele>
        <time>2023-07-02T07:45:03Z</time>
      </trkpt>
      <trkpt lat="48.01591" lon="5.4533">
        <ele>431</ele>
        <time>2023-07-02T07:45:31Z</time>
      </trkpt>
      <trkpt lat="48.01589" lon="5.45329">
        <ele>433</ele>
        <time>2023-07-02T07:45:55Z</time>
      </trkpt>
      <trkpt lat="48.01587" lon="5.45327">
        <ele>432</ele>
        <time>2023-07-02T07:46:12Z</time>
      </trkpt>
      <trkpt lat="48.01597" lon="5.45329">
        <ele>433</ele>
        <time>2023-07-02T07:46:35Z</time>
      </trkpt>
      <trkpt lat="48.01596" lon="5.45336">
        <ele>432</ele>
        <time>2023-07-02T07:47:00Z</time>
      </trkpt>
      <trkpt lat="48.01595" lon="5.4533">
        <ele>433</ele>
        <time>2023-07-02T07:47:22Z</time>
      </trkpt>
      <trkpt lat="48.01596" lon="5.45325">
        <ele>432</ele>
        <time>2023-07-02T07:47:43Z</time>
      </trkpt>
      <trkpt lat="48.01594" lon="5.45328">
        <ele>433</ele>
        <time>2023-07-02T07:48:00Z</time>
      </trkpt>
      <trkpt lat="48.01595" lon="5.45322">
        <ele>433</ele>
        <time>2023-07-02T07:48:22Z</time>
      </trkpt>
      <trkpt lat="48.01588" lon="5.45308">
        <ele>433</ele>
        <time>2023-07-02T07:48:52Z</time>
      </trkpt>
      <trkpt lat="48.01592" lon="5.45319">
        <ele>433</ele>
        <time>2023-07-02T07:49:18Z</time>
      </trkpt>
      <trkpt lat="48.01596" lon="5.45326">
        <ele>434</ele>
        <time>2023-07-02T07:49:48Z</time>
      </trkpt>
      <trkpt lat="48.01598" lon="5.45329">
        <ele>434</ele>
        <time>2023-07-02T07:50:14Z</time>
      </trkpt>
      <trkpt lat="48.01594" lon="5.4532">
        <ele>433</ele>
        <time>2023-07-02T07:50:31Z</time>
      </trkpt>
      <trkpt lat="48.0158" lon="5.45312">
        <ele>433</ele>
        <time>2023-07-02T07:50:51Z</time>
      </trkpt>
      <trkpt lat="48.01585" lon="5.45296">
        <ele>432</ele>
        <time>2023-07-02T07:51:06Z</time>
      </trkpt>
      <trkpt lat="48.01599" lon="5.45273">
        <ele>432</ele>
        <time>2023-07-02T07:51:24Z</time>
      </trkpt>
      <trkpt lat="48.01612" lon="5.4524">
        <ele>431</ele>
        <time>2023-07-02T07:51:44Z</time>
      </trkpt>
      <trkpt lat="48.01616" lon="5.45216">
        <ele>430</ele>
        <time>2023-07-02T07:51:59Z</time>
      </trkpt>
      <trkpt lat="48.0162" lon="5.45192">
        <ele>430</ele>
        <time>2023-07-02T07:52:13Z</time>
      </trkpt>
      <trkpt lat="48.01623" lon="5.45157">
        <ele>428</ele>
        <time>2023-07-02T07:52:30Z</time>
      </trkpt>
      <trkpt lat="48.01627" lon="5.45125">
        <ele>428</ele>
        <time>2023-07-02T07:52:48Z</time>
      </trkpt>
      <trkpt lat="48.01631" lon="5.45094">
        <ele>426</ele>
        <time>2023-07-02T07:53:05Z</time>
      </trkpt>
      <trkpt lat="48.01633" lon="5.45065">
        <ele>426</ele>
        <time>2023-07-02T07:53:21Z</time>
      </trkpt>
      <trkpt lat="48.01631" lon="5.45026">
        <ele>425</ele>
        <time>2023-07-02T07:53:41Z</time>
      </trkpt>
      <trkpt lat="48.01636" lon="5.44993">
        <ele>424</ele>
        <time>2023-07-02T07:53:58Z</time>
      </trkpt>
      <trkpt lat="48.01637" lon="5.44984">
        <ele>423</ele>
        <time>2023-07-02T07:54:02Z</time>
      </trkpt>
      <trkpt lat="48.01639" lon="5.4495">
        <ele>423</ele>
        <time>2023-07-02T07:54:21Z</time>
      </trkpt>
      <trkpt lat="48.0164" lon="5.44932">
        <ele>421</ele>
        <time>2023-07-02T07:54:37Z</time>
      </trkpt>
      <trkpt lat="48.01642" lon="5.44914">
        <ele>422</ele>
        <time>2023-07-02T07:54:52Z</time>
      </trkpt>
      <trkpt lat="48.01651" lon="5.449">
        <ele>421</ele>
        <time>2023-07-02T07:55:12Z</time>
      </trkpt>
      <trkpt lat="48.01651" lon="5.44883">
        <ele>420</ele>
        <time>2023-07-02T07:55:30Z</time>
      </trkpt>
      <trkpt lat="48.01654" lon="5.44874">
        <ele>420</ele>
        <time>2023-07-02T07:55:47Z</time>
      </trkpt>
      <trkpt lat="48.01659" lon="5.44869">
        <ele>421</ele>
        <time>2023-07-02T07:56:15Z</time>
      </trkpt>
      <trkpt lat="48.01663" lon="5.44873">
        <ele>421</ele>
        <time>2023-07-02T07:56:43Z</time>
      </trkpt>
      <trkpt lat="48.01663" lon="5.44869">
        <ele>420</ele>
        <time>2023-07-02T07:57:16Z</time>
      </trkpt>
      <trkpt lat="48.0166" lon="5.44864">
        <ele>421</ele>
        <time>2023-07-02T07:57:49Z</time>
      </trkpt>
      <trkpt lat="48.01664" lon="5.44871">
        <ele>420</ele>
        <time>2023-07-02T07:58:14Z</time>
      </trkpt>
      <trkpt lat="48.01667" lon="5.44871">
        <ele>420</ele>
        <time>2023-07-02T07:58:36Z</time>
      </trkpt>
      <trkpt lat="48.01684" lon="5.44874">
        <ele>420</ele>
        <time>2023-07-02T07:58:55Z</time>
      </trkpt>
      <trkpt lat="48.01696" lon="5.44873">
        <ele>421</ele>
        <time>2023-07-02T07:59:14Z</time>
      </trkpt>
      <trkpt lat="48.01714" lon="5.44873">
        <ele>421</ele>
        <time>2023-07-02T07:59:34Z</time>
      </trkpt>
      <trkpt lat="48.01729" lon="5.44872">
        <ele>421</ele>
        <time>2023-07-02T07:59:53Z</time>
      </trkpt>
      <trkpt lat="48.01742" lon="5.44867">
        <ele>422</ele>
        <time>2023-07-02T08:00:09Z</time>
      </trkpt>
      <trkpt lat="48.01761" lon="5.44865">
        <ele>424</ele>
        <time>2023-07-02T08:00:26Z</time>
      </trkpt>
      <trkpt lat="48.01768" lon="5.44872">
        <ele>423</ele>
        <time>2023-07-02T08:00:44Z</time>
      </trkpt>
      <trkpt lat="48.01773" lon="5.44872">
        <ele>425</ele>
        <time>2023-07-02T08:01:09Z</time>
      </trkpt>
      <trkpt lat="48.01778" lon="5.44866">
        <ele>424</ele>
        <time>2023-07-02T08:01:25Z</time>
      </trkpt>
      <trkpt lat="48.01793" lon="5.4487">
        <ele>423</ele>
        <time>2023-07-02T08:01:43Z</time>
      </trkpt>
      <trkpt lat="48.01813" lon="5.44866">
        <ele>421</ele>
        <time>2023-07-02T08:01:59Z</time>
      </trkpt>
      <trkpt lat="48.0183" lon="5.44862">
        <ele>419</ele>
        <time>2023-07-02T08:02:20Z</time>
      </trkpt>
      <trkpt lat="48.01849" lon="5.44857">
        <ele>418</ele>
        <time>2023-07-02T08:02:41Z</time>
      </trkpt>
      <trkpt lat="48.01861" lon="5.44847">
        <ele>417</ele>
        <time>2023-07-02T08:03:01Z</time>
      </trkpt>
      <trkpt lat="48.01869" lon="5.44834">
        <ele>417</ele>
        <time>2023-07-02T08:03:17Z</time>
      </trkpt>
      <trkpt lat="48.01867" lon="5.44811">
        <ele>417</ele>
        <time>2023-07-02T08:03:34Z</time>
      </trkpt>
      <trkpt lat="48.01868" lon="5.44805">
        <ele>417</ele>
        <time>2023-07-02T08:03:38Z</time>
      </trkpt>
      <trkpt lat="48.01871" lon="5.44787">
        <ele>416</ele>
        <time>2023-07-02T08:03:50Z</time>
      </trkpt>
      <trkpt lat="48.01873" lon="5.44759">
        <ele>417</ele>
        <time>2023-07-02T08:04:09Z</time>
      </trkpt>
      <trkpt lat="48.0187" lon="5.4473">
        <ele>417</ele>
        <time>2023-07-02T08:04:28Z</time>
      </trkpt>
      <trkpt lat="48.01864" lon="5.44705">
        <ele>417</ele>
        <time>2023-07-02T08:04:48Z</time>
      </trkpt>
      <trkpt lat="48.0186" lon="5.44681">
        <ele>416</ele>
        <time>2023-07-02T08:05:04Z</time>
      </trkpt>
      <trkpt lat="48.01857" lon="5.44653">
        <ele>417</ele>
        <time>2023-07-02T08:05:20Z</time>
      </trkpt>
      <trkpt lat="48.01853" lon="5.44627">
        <ele>417</ele>
        <time>2023-07-02T08:05:38Z</time>
      </trkpt>
      <trkpt lat="48.01852" lon="5.44623">
        <ele>417</ele>
        <time>2023-07-02T08:05:58Z</time>
      </trkpt>
      <trkpt lat="48.01849" lon="5.44625">
        <ele>417</ele>
        <time>2023-07-02T08:06:19Z</time>
      </trkpt>
      <trkpt lat="48.0185" lon="5.44614">
        <ele>418</ele>
        <time>2023-07-02T08:06:35Z</time>
      </trkpt>
      <trkpt lat="48.01848" lon="5.44612">
        <ele>417</ele>
        <time>2023-07-02T08:06:39Z</time>
      </trkpt>
      <trkpt lat="48.01849" lon="5.44607">
        <ele>417</ele>
        <time>2023-07-02T08:06:55Z</time>
      </trkpt>
      <trkpt lat="48.01843" lon="5.44598">
        <ele>416</ele>
        <time>2023-07-02T08:07:09Z</time>
      </trkpt>
      <trkpt lat="48.01834" lon="5.44584">
        <ele>417</ele>
        <time>2023-07-02T08:07:27Z</time>
      </trkpt>
      <trkpt lat="48.01826" lon="5.44569">
        <ele>417</ele>
        <time>2023-07-02T08:07:41Z</time>
      </trkpt>
      <trkpt lat="48.01819" lon="5.4456">
        <ele>416</ele>
        <time>2023-07-02T08:07:52Z</time>
      </trkpt>
      <trkpt lat="48.01809" lon="5.44541">
        <ele>417</ele>
        <time>2023-07-02T08:08:11Z</time>
      </trkpt>
      <trkpt lat="48.01803" lon="5.44528">
        <ele>417</ele>
        <time>2023-07-02T08:08:22Z</time>
      </trkpt>
      <trkpt lat="48.01794" lon="5.44503">
        <ele>415</ele>
        <time>2023-07-02T08:08:40Z</time>
      </trkpt>
      <trkpt lat="48.01786" lon="5.44485">
        <ele>415</ele>
        <time>2023-07-02T08:08:55Z</time>
      </trkpt>
      <trkpt lat="48.01775" lon="5.4446">
        <ele>415</ele>
        <time>2023-07-02T08:09:14Z</time>
      </trkpt>
      <trkpt lat="48.01763" lon="5.44446">
        <ele>415</ele>
        <time>2023-07-02T08:09:32Z</time>
      </trkpt>
      <trkpt lat="48.01768" lon="5.44447">
        <ele>414</ele>
        <time>2023-07-02T08:09:53Z</time>
      </trkpt>
      <trkpt lat="48.01753" lon="5.4444">
        <ele>413</ele>
        <time>2023-07-02T08:10:08Z</time>
      </trkpt>
      <trkpt lat="48.01734" lon="5.44431">
        <ele>413</ele>
        <time>2023-07-02T08:10:26Z</time>
      </trkpt>
      <trkpt lat="48.01733" lon="5.44429">
        <ele>411</ele>
        <time>2023-07-02T08:10:28Z</time>
      </trkpt>
      <trkpt lat="48.01729" lon="5.44423">
        <ele>413</ele>
        <time>2023-07-02T08:10:34Z</time>
      </trkpt>
      <trkpt lat="48.01725" lon="5.44418">
        <ele>413</ele>
        <time>2023-07-02T08:10:40Z</time>
      </trkpt>
      <trkpt lat="48.01717" lon="5.44407">
        <ele>414</ele>
        <time>2023-07-02T08:10:53Z</time>
      </trkpt>
      <trkpt lat="48.01715" lon="5.44406">
        <ele>414</ele>
        <time>2023-07-02T08:11:08Z</time>
      </trkpt>
      <trkpt lat="48.01718" lon="5.44407">
        <ele>414</ele>
        <time>2023-07-02T08:11:32Z</time>
      </trkpt>
      <trkpt lat="48.01715" lon="5.44405">
        <ele>414</ele>
        <time>2023-07-02T08:11:46Z</time>
      </trkpt>
      <trkpt lat="48.01705" lon="5.44387">
        <ele>413</ele>
        <time>2023-07-02T08:12:01Z</time>
      </trkpt>
      <trkpt lat="48.01688" lon="5.44363">
        <ele>414</ele>
        <time>2023-07-02T08:12:21Z</time>
      </trkpt>
      <trkpt lat="48.01673" lon="5.44334">
        <ele>413</ele>
        <time>2023-07-02T08:12:41Z</time>
      </trkpt>
      <trkpt lat="48.01659" lon="5.44309">
        <ele>413</ele>
        <time>2023-07-02T08:13:00Z</time>
      </trkpt>
      <trkpt lat="48.01646" lon="5.44291">
        <ele>414</ele>
        <time>2023-07-02T08:13:17Z</time>
      </trkpt>
      <trkpt lat="48.01636" lon="5.44277">
        <ele>413</ele>
        <time>2023-07-02T08:13:33Z</time>
      </trkpt>
      <trkpt lat="48.01632" lon="5.44272">
        <ele>413</ele>
        <time>2023-07-02T08:13:43Z</time>
      </trkpt>
      <trkpt lat="48.0161" lon="5.44261">
        <ele>413</ele>
        <time>2023-07-02T08:14:02Z</time>
      </trkpt>
      <trkpt lat="48.01595" lon="5.44246">
        <ele>413</ele>
        <time>2023-07-02T08:14:17Z</time>
      </trkpt>
      <trkpt lat="48.01585" lon="5.44235">
        <ele>413</ele>
        <time>2023-07-02T08:14:30Z</time>
      </trkpt>
      <trkpt lat="48.01586" lon="5.44203">
        <ele>413</ele>
        <time>2023-07-02T08:14:49Z</time>
      </trkpt>
      <trkpt lat="48.01583" lon="5.44169">
        <ele>412</ele>
        <time>2023-07-02T08:15:08Z</time>
      </trkpt>
      <trkpt lat="48.01581" lon="5.44132">
        <ele>412</ele>
        <time>2023-07-02T08:15:29Z</time>
      </trkpt>
      <trkpt lat="48.0158" lon="5.44099">
        <ele>410</ele>
        <time>2023-07-02T08:15:48Z</time>
      </trkpt>
      <trkpt lat="48.01578" lon="5.44066">
        <ele>411</ele>
        <time>2023-07-02T08:16:07Z</time>
      </trkpt>
      <trkpt lat="48.01574" lon="5.44035">
        <ele>410</ele>
        <time>2023-07-02T08:16:26Z</time>
      </trkpt>
      <trkpt lat="48.0157" lon="5.44004">
        <ele>410</ele>
        <time>2023-07-02T08:16:45Z</time>
      </trkpt>
      <trkpt lat="48.01569" lon="5.43968">
        <ele>410</ele>
        <time>2023-07-02T08:17:06Z</time>
      </trkpt>
      <trkpt lat="48.01569" lon="5.43935">
        <ele>410</ele>
        <time>2023-07-02T08:17:26Z</time>
      </trkpt>
      <trkpt lat="48.01567" lon="5.43906">
        <ele>410</ele>
        <time>2023-07-02T08:17:46Z</time>
      </trkpt>
      <trkpt lat="48.01567" lon="5.43899">
        <ele>409</ele>
        <time>2023-07-02T08:17:56Z</time>
      </trkpt>
      <trkpt lat="48.01573" lon="5.43898">
        <ele>409</ele>
        <time>2023-07-02T08:18:02Z</time>
      </trkpt>
      <trkpt lat="48.01586" lon="5.4389">
        <ele>409</ele>
        <time>2023-07-02T08:18:18Z</time>
      </trkpt>
      <trkpt lat="48.01586" lon="5.43884">
        <ele>409</ele>
        <time>2023-07-02T08:18:36Z</time>
      </trkpt>
      <trkpt lat="48.01591" lon="5.43874">
        <ele>409</ele>
        <time>2023-07-02T08:18:56Z</time>
      </trkpt>
      <trkpt lat="48.01593" lon="5.43858">
        <ele>409</ele>
        <time>2023-07-02T08:19:16Z</time>
      </trkpt>
      <trkpt lat="48.01598" lon="5.43841">
        <ele>409</ele>
        <time>2023-07-02T08:19:33Z</time>
      </trkpt>
      <trkpt lat="48.01608" lon="5.43814">
        <ele>410</ele>
        <time>2023-07-02T08:19:55Z</time>
      </trkpt>
      <trkpt lat="48.01618" lon="5.43794">
        <ele>410</ele>
        <time>2023-07-02T08:20:12Z</time>
      </trkpt>
      <trkpt lat="48.01627" lon="5.43768">
        <ele>410</ele>
        <time>2023-07-02T08:20:30Z</time>
      </trkpt>
      <trkpt lat="48.01634" lon="5.43747">
        <ele>411</ele>
        <time>2023-07-02T08:20:48Z</time>
      </trkpt>
      <trkpt lat="48.01645" lon="5.43716">
        <ele>410</ele>
        <time>2023-07-02T08:21:09Z</time>
      </trkpt>
      <trkpt lat="48.01657" lon="5.43687">
        <ele>410</ele>
        <time>2023-07-02T08:21:29Z</time>
      </trkpt>
      <trkpt lat="48.01665" lon="5.43654">
        <ele>409</ele>
        <time>2023-07-02T08:21:47Z</time>
      </trkpt>
      <trkpt lat="48.01668" lon="5.43621">
        <ele>408</ele>
        <time>2023-07-02T08:22:06Z</time>
      </trkpt>
      <trkpt lat="48.01672" lon="5.436">
        <ele>407</ele>
        <time>2023-07-02T08:22:22Z</time>
      </trkpt>
      <trkpt lat="48.01678" lon="5.43572">
        <ele>406</ele>
        <time>2023-07-02T08:22:40Z</time>
      </trkpt>
      <trkpt lat="48.01685" lon="5.4355">
        <ele>407</ele>
        <time>2023-07-02T08:22:55Z</time>
      </trkpt>
      <trkpt lat="48.017" lon="5.43518">
        <ele>409</ele>
        <time>2023-07-02T08:23:16Z</time>
      </trkpt>
      <trkpt lat="48.01709" lon="5.43488">
        <ele>410</ele>
        <time>2023-07-02T08:23:36Z</time>
      </trkpt>
      <trkpt lat="48.01721" lon="5.43462">
        <ele>411</ele>
        <time>2023-07-02T08:23:57Z</time>
      </trkpt>
      <trkpt lat="48.01732" lon="5.43438">
        <ele>411</ele>
        <time>2023-07-02T08:24:15Z</time>
      </trkpt>
      <trkpt lat="48.01744" lon="5.43418">
        <ele>410</ele>
        <time>2023-07-02T08:24:32Z</time>
      </trkpt>
      <trkpt lat="48.01755" lon="5.43395">
        <ele>410</ele>
        <time>2023-07-02T08:24:52Z</time>
      </trkpt>
      <trkpt lat="48.01761" lon="5.4338">
        <ele>409</ele>
        <time>2023-07-02T08:25:06Z</time>
      </trkpt>
      <trkpt lat="48.01769" lon="5.43362">
        <ele>408</ele>
        <time>2023-07-02T08:25:18Z</time>
      </trkpt>
      <trkpt lat="48.01779" lon="5.43335">
        <ele>406</ele>
        <time>2023-07-02T08:25:36Z</time>
      </trkpt>
      <trkpt lat="48.0179" lon="5.43307">
        <ele>404</ele>
        <time>2023-07-02T08:25:53Z</time>
      </trkpt>
      <trkpt lat="48.01798" lon="5.43284">
        <ele>406</ele>
        <time>2023-07-02T08:26:10Z</time>
      </trkpt>
      <trkpt lat="48.01804" lon="5.43256">
        <ele>406</ele>
        <time>2023-07-02T08:26:30Z</time>
      </trkpt>
      <trkpt lat="48.01815" lon="5.43228">
        <ele>407</ele>
        <time>2023-07-02T08:26:47Z</time>
      </trkpt>
      <trkpt lat="48.01821" lon="5.43207">
        <ele>407</ele>
        <time>2023-07-02T08:27:01Z</time>
      </trkpt>
      <trkpt lat="48.01828" lon="5.43182">
        <ele>407</ele>
        <time>2023-07-02T08:27:18Z</time>
      </trkpt>
      <trkpt lat="48.01838" lon="5.43159">
        <ele>407</ele>
        <time>2023-07-02T08:27:36Z</time>
      </trkpt>
      <trkpt lat="48.01845" lon="5.43143">
        <ele>407</ele>
        <time>2023-07-02T08:27:54Z</time>
      </trkpt>
      <trkpt lat="48.0185" lon="5.43117">
        <ele>407</ele>
        <time>2023-07-02T08:28:13Z</time>
      </trkpt>
      <trkpt lat="48.01858" lon="5.43096">
        <ele>406</ele>
        <time>2023-07-02T08:28:30Z</time>
      </trkpt>
      <trkpt lat="48.01867" lon="5.43071">
        <ele>404</ele>
        <time>2023-07-02T08:28:47Z</time>
      </trkpt>
      <trkpt lat="48.01875" lon="5.43045">
        <ele>403</ele>
        <time>2023-07-02T08:29:04Z</time>
      </trkpt>
      <trkpt lat="48.01881" lon="5.43028">
        <ele>402</ele>
        <time>2023-07-02T08:29:18Z</time>
      </trkpt>
      <trkpt lat="48.01881" lon="5.43028">
        <ele>402</ele>
        <time>2023-07-02T08:29:35Z</time>
      </trkpt>
      <trkpt lat="48.0189" lon="5.43028">
        <ele>403</ele>
        <time>2023-07-02T08:29:47Z</time>
      </trkpt>
      <trkpt lat="48.01906" lon="5.43039">
        <ele>404</ele>
        <time>2023-07-02T08:30:04Z</time>
      </trkpt>
      <trkpt lat="48.01919" lon="5.4305">
        <ele>404</ele>
        <time>2023-07-02T08:30:21Z</time>
      </trkpt>
      <trkpt lat="48.01937" lon="5.43063">
        <ele>404</ele>
        <time>2023-07-02T08:30:39Z</time>
      </trkpt>
      <trkpt lat="48.01958" lon="5.43083">
        <ele>405</ele>
        <time>2023-07-02T08:30:58Z</time>
      </trkpt>
      <trkpt lat="48.01974" lon="5.43096">
        <ele>406</ele>
        <time>2023-07-02T08:31:13Z</time>
      </trkpt>
      <trkpt lat="48.01994" lon="5.43113">
        <ele>405</ele>
        <time>2023-07-02T08:31:32Z</time>
      </trkpt>
      <trkpt lat="48.02011" lon="5.4313">
        <ele>406</ele>
        <time>2023-07-02T08:31:50Z</time>
      </trkpt>
      <trkpt lat="48.02026" lon="5.43144">
        <ele>407</ele>
        <time>2023-07-02T08:32:06Z</time>
      </trkpt>
      <trkpt lat="48.0204" lon="5.4316">
        <ele>408</ele>
        <time>2023-07-02T08:32:22Z</time>
      </trkpt>
      <trkpt lat="48.02053" lon="5.43166">
        <ele>409</ele>
        <time>2023-07-02T08:32:37Z</time>
      </trkpt>
      <trkpt lat="48.02059" lon="5.43167">
        <ele>409</ele>
        <time>2023-07-02T08:32:54Z</time>
      </trkpt>
      <trkpt lat="48.02059" lon="5.4316">
        <ele>409</ele>
        <time>2023-07-02T08:33:16Z</time>
      </trkpt>
      <trkpt lat="48.02064" lon="5.4315">
        <ele>409</ele>
        <time>2023-07-02T08:33:25Z</time>
      </trkpt>
      <trkpt lat="48.02068" lon="5.43131">
        <ele>408</ele>
        <time>2023-07-02T08:33:40Z</time>
      </trkpt>
      <trkpt lat="48.02072" lon="5.43116">
        <ele>407</ele>
        <time>2023-07-02T08:33:53Z</time>
      </trkpt>
      <trkpt lat="48.02082" lon="5.43079">
        <ele>407</ele>
        <time>2023-07-02T08:34:15Z</time>
      </trkpt>
      <trkpt lat="48.02085" lon="5.43055">
        <ele>407</ele>
        <time>2023-07-02T08:34:31Z</time>
      </trkpt>
      <trkpt lat="48.02089" lon="5.4304">
        <ele>406</ele>
        <time>2023-07-02T08:34:42Z</time>
      </trkpt>
      <trkpt lat="48.02091" lon="5.43011">
        <ele>407</ele>
        <time>2023-07-02T08:35:01Z</time>
      </trkpt>
      <trkpt lat="48.02094" lon="5.4298">
        <ele>407</ele>
        <time>2023-07-02T08:35:19Z</time>
      </trkpt>
      <trkpt lat="48.02103" lon="5.42942">
        <ele>408</ele>
        <time>2023-07-02T08:35:38Z</time>
      </trkpt>
      <trkpt lat="48.02111" lon="5.42924">
        <ele>407</ele>
        <time>2023-07-02T08:35:56Z</time>
      </trkpt>
      <trkpt lat="48.02113" lon="5.42911">
        <ele>408</ele>
        <time>2023-07-02T08:36:11Z</time>
      </trkpt>
      <trkpt lat="48.02118" lon="5.42897">
        <ele>408</ele>
        <time>2023-07-02T08:36:26Z</time>
      </trkpt>
      <trkpt lat="48.02124" lon="5.42873">
        <ele>410</ele>
        <time>2023-07-02T08:36:43Z</time>
      </trkpt>
      <trkpt lat="48.02131" lon="5.4286">
        <ele>410</ele>
        <time>2023-07-02T08:36:54Z</time>
      </trkpt>
      <trkpt lat="48.02144" lon="5.42831">
        <ele>411</ele>
        <time>2023-07-02T08:37:14Z</time>
      </trkpt>
      <trkpt lat="48.02159" lon="5.42807">
        <ele>413</ele>
        <time>2023-07-02T08:37:31Z</time>
      </trkpt>
      <trkpt lat="48.02161" lon="5.42804">
        <ele>413</ele>
        <time>2023-07-02T08:37:33Z</time>
      </trkpt>
      <trkpt lat="48.02165" lon="5.42798">
        <ele>413</ele>
        <time>2023-07-02T08:37:37Z</time>
      </trkpt>
      <trkpt lat="48.02185" lon="5.42769">
        <ele>414</ele>
        <time>2023-07-02T08:37:56Z</time>
      </trkpt>
      <trkpt lat="48.02198" lon="5.42745">
        <ele>415</ele>
        <time>2023-07-02T08:38:12Z</time>
      </trkpt>
      <trkpt lat="48.02211" lon="5.42726">
        <ele>415</ele>
        <time>2023-07-02T08:38:26Z</time>
      </trkpt>
      <trkpt lat="48.02226" lon="5.42695">
        <ele>414</ele>
        <time>2023-07-02T08:38:44Z</time>
      </trkpt>
      <trkpt lat="48.02242" lon="5.42669">
        <ele>413</ele>
        <time>2023-07-02T08:39:02Z</time>
      </trkpt>
      <trkpt lat="48.02253" lon="5.42645">
        <ele>412</ele>
        <time>2023-07-02T08:39:16Z</time>
      </trkpt>
      <trkpt lat="48.02268" lon="5.42618">
        <ele>411</ele>
        <time>2023-07-02T08:39:33Z</time>
      </trkpt>
      <trkpt lat="48.0228" lon="5.42594">
        <ele>409</ele>
        <time>2023-07-02T08:39:48Z</time>
      </trkpt>
      <trkpt lat="48.023" lon="5.42564">
        <ele>407</ele>
        <time>2023-07-02T08:40:08Z</time>
      </trkpt>
      <trkpt lat="48.02313" lon="5.42537">
        <ele>407</ele>
        <time>2023-07-02T08:40:25Z</time>
      </trkpt>
      <trkpt lat="48.0233" lon="5.42505">
        <ele>405</ele>
        <time>2023-07-02T08:40:45Z</time>
      </trkpt>
      <trkpt lat="48.02346" lon="5.42476">
        <ele>404</ele>
        <time>2023-07-02T08:41:04Z</time>
      </trkpt>
      <trkpt lat="48.02361" lon="5.42448">
        <ele>405</ele>
        <time>2023-07-02T08:41:24Z</time>
      </trkpt>
      <trkpt lat="48.02371" lon="5.4244">
        <ele>404</ele>
        <time>2023-07-02T08:41:33Z</time>
      </trkpt>
      <trkpt lat="48.02389" lon="5.42429">
        <ele>403</ele>
        <time>2023-07-02T08:41:50Z</time>
      </trkpt>
      <trkpt lat="48.02391" lon="5.42428">
        <ele>403</ele>
        <time>2023-07-02T08:41:51Z</time>
      </trkpt>
      <trkpt lat="48.02412" lon="5.42423">
        <ele>402</ele>
        <time>2023-07-02T08:42:07Z</time>
      </trkpt>
      <trkpt lat="48.02427" lon="5.42424">
        <ele>402</ele>
        <time>2023-07-02T08:42:19Z</time>
      </trkpt>
      <trkpt lat="48.02451" lon="5.4244">
        <ele>401</ele>
        <time>2023-07-02T08:42:38Z</time>
      </trkpt>
      <trkpt lat="48.02469" lon="5.42452">
        <ele>401</ele>
        <time>2023-07-02T08:42:53Z</time>
      </trkpt>
      <trkpt lat="48.02488" lon="5.42466">
        <ele>400</ele>
        <time>2023-07-02T08:43:10Z</time>
      </trkpt>
      <trkpt lat="48.0251" lon="5.42486">
        <ele>400</ele>
        <time>2023-07-02T08:43:29Z</time>
      </trkpt>
      <trkpt lat="48.02529" lon="5.42507">
        <ele>399</ele>
        <time>2023-07-02T08:43:47Z</time>
      </trkpt>
      <trkpt lat="48.02545" lon="5.42526">
        <ele>400</ele>
        <time>2023-07-02T08:44:03Z</time>
      </trkpt>
      <trkpt lat="48.02563" lon="5.42559">
        <ele>400</ele>
        <time>2023-07-02T08:44:22Z</time>
      </trkpt>
      <trkpt lat="48.0257" lon="5.42575">
        <ele>400</ele>
        <time>2023-07-02T08:44:31Z</time>
      </trkpt>
      <trkpt lat="48.02572" lon="5.4258">
        <ele>401</ele>
        <time>2023-07-02T08:44:34Z</time>
      </trkpt>
      <trkpt lat="48.02586" lon="5.42615">
        <ele>400</ele>
        <time>2023-07-02T08:44:55Z</time>
      </trkpt>
      <trkpt lat="48.02584" lon="5.4264">
        <ele>401</ele>
        <time>2023-07-02T08:45:11Z</time>
      </trkpt>
      <trkpt lat="48.02582" lon="5.4265">
        <ele>400</ele>
        <time>2023-07-02T08:45:30Z</time>
      </trkpt>
      <trkpt lat="48.02582" lon="5.42644">
        <ele>401</ele>
        <time>2023-07-02T08:45:52Z</time>
      </trkpt>
      <trkpt lat="48.02581" lon="5.42645">
        <ele>401</ele>
        <time>2023-07-02T08:46:19Z</time>
      </trkpt>
      <trkpt lat="48.02581" lon="5.42647">
        <ele>400</ele>
        <time>2023-07-02T08:46:39Z</time>
      </trkpt>
      <trkpt lat="48.02578" lon="5.42661">
        <ele>399</ele>
        <time>2023-07-02T08:47:01Z</time>
      </trkpt>
      <trkpt lat="48.0258" lon="5.42688">
        <ele>398</ele>
        <time>2023-07-02T08:47:18Z</time>
      </trkpt>
      <trkpt lat="48.02576" lon="5.42714">
        <ele>397</ele>
        <time>2023-07-02T08:47:33Z</time>
      </trkpt>
      <trkpt lat="48.02562" lon="5.42735">
        <ele>395</ele>
        <time>2023-07-02T08:47:49Z</time>
      </trkpt>
      <trkpt lat="48.0254" lon="5.42757">
        <ele>395</ele>
        <time>2023-07-02T08:48:08Z</time>
      </trkpt>
      <trkpt lat="48.02519" lon="5.42764">
        <ele>394</ele>
        <time>2023-07-02T08:48:25Z</time>
      </trkpt>
      <trkpt lat="48.02503" lon="5.42785">
        <ele>394</ele>
        <time>2023-07-02T08:48:41Z</time>
      </trkpt>
      <trkpt lat="48.02503" lon="5.4279">
        <ele>394</ele>
        <time>2023-07-02T08:48:44Z</time>
      </trkpt>
      <trkpt lat="48.02499" lon="5.42815">
        <ele>393</ele>
        <time>2023-07-02T08:48:59Z</time>
      </trkpt>
      <trkpt lat="48.02494" lon="5.42837">
        <ele>394</ele>
        <time>2023-07-02T08:49:13Z</time>
      </trkpt>
      <trkpt lat="48.02491" lon="5.42868">
        <ele>393</ele>
        <time>2023-07-02T08:49:31Z</time>
      </trkpt>
      <trkpt lat="48.02485" lon="5.42892">
        <ele>393</ele>
        <time>2023-07-02T08:49:47Z</time>
      </trkpt>
      <trkpt lat="48.02478" lon="5.42917">
        <ele>392</ele>
        <time>2023-07-02T08:50:03Z</time>
      </trkpt>
      <trkpt lat="48.02471" lon="5.42928">
        <ele>393</ele>
        <time>2023-07-02T08:50:13Z</time>
      </trkpt>
      <trkpt lat="48.02459" lon="5.42953">
        <ele>393</ele>
        <time>2023-07-02T08:50:30Z</time>
      </trkpt>
      <trkpt lat="48.02451" lon="5.42977">
        <ele>393</ele>
        <time>2023-07-02T08:50:48Z</time>
      </trkpt>
      <trkpt lat="48.02445" lon="5.43004">
        <ele>391</ele>
        <time>2023-07-02T08:51:07Z</time>
      </trkpt>
      <trkpt lat="48.02429" lon="5.43028">
        <ele>393</ele>
        <time>2023-07-02T08:51:24Z</time>
      </trkpt>
      <trkpt lat="48.02417" lon="5.43054">
        <ele>393</ele>
        <time>2023-07-02T08:51:41Z</time>
      </trkpt>
      <trkpt lat="48.0242" lon="5.43073">
        <ele>393</ele>
        <time>2023-07-02T08:51:54Z</time>
      </trkpt>
      <trkpt lat="48.02426" lon="5.43104">
        <ele>392</ele>
        <time>2023-07-02T08:52:11Z</time>
      </trkpt>
      <trkpt lat="48.02428" lon="5.43121">
        <ele>391</ele>
        <time>2023-07-02T08:52:20Z</time>
      </trkpt>
      <trkpt lat="48.02424" lon="5.43153">
        <ele>391</ele>
        <time>2023-07-02T08:52:38Z</time>
      </trkpt>
      <trkpt lat="48.02425" lon="5.43157">
        <ele>391</ele>
        <time>2023-07-02T08:52:40Z</time>
      </trkpt>
      <trkpt lat="48.02427" lon="5.43169">
        <ele>390</ele>
        <time>2023-07-02T08:52:47Z</time>
      </trkpt>
      <trkpt lat="48.02429" lon="5.43178">
        <ele>391</ele>
        <time>2023-07-02T08:52:53Z</time>
      </trkpt>
      <trkpt lat="48.02443" lon="5.43194">
        <ele>390</ele>
        <time>2023-07-02T08:53:11Z</time>
      </trkpt>
      <trkpt lat="48.02444" lon="5.43201">
        <ele>390</ele>
        <time>2023-07-02T08:53:15Z</time>
      </trkpt>
      <trkpt lat="48.02447" lon="5.43227">
        <ele>390</ele>
        <time>2023-07-02T08:53:31Z</time>
      </trkpt>
      <trkpt lat="48.02448" lon="5.43248">
        <ele>389</ele>
        <time>2023-07-02T08:53:45Z</time>
      </trkpt>
      <trkpt lat="48.02451" lon="5.43279">
        <ele>389</ele>
        <time>2023-07-02T08:54:03Z</time>
      </trkpt>
      <trkpt lat="48.0246" lon="5.43306">
        <ele>390</ele>
        <time>2023-07-02T08:54:21Z</time>
      </trkpt>
      <trkpt lat="48.02476" lon="5.43334">
        <ele>390</ele>
        <time>2023-07-02T08:54:42Z</time>
      </trkpt>
      <trkpt lat="48.02493" lon="5.43351">
        <ele>390</ele>
        <time>2023-07-02T08:55:00Z</time>
      </trkpt>
      <trkpt lat="48.02512" lon="5.43373">
        <ele>390</ele>
        <time>2023-07-02T08:55:19Z</time>
      </trkpt>
      <trkpt lat="48.0253" lon="5.43397">
        <ele>391</ele>
        <time>2023-07-02T08:55:36Z</time>
      </trkpt>
      <trkpt lat="48.02555" lon="5.43433">
        <ele>391</ele>
        <time>2023-07-02T08:56:02Z</time>
      </trkpt>
      <trkpt lat="48.02574" lon="5.43467">
        <ele>391</ele>
        <time>2023-07-02T08:56:23Z</time>
      </trkpt>
      <trkpt lat="48.0259" lon="5.43506">
        <ele>390</ele>
        <time>2023-07-02T08:56:45Z</time>
      </trkpt>
      <trkpt lat="48.02604" lon="5.43548">
        <ele>389</ele>
        <time>2023-07-02T08:57:07Z</time>
      </trkpt>
      <trkpt lat="48.02614" lon="5.43586">
        <ele>390</ele>
        <time>2023-07-02T08:57:26Z</time>
      </trkpt>
      <trkpt lat="48.02615" lon="5.43626">
        <ele>390</ele>
        <time>2023-07-02T08:57:46Z</time>
      </trkpt>
      <trkpt lat="48.02621" lon="5.43659">
        <ele>391</ele>
        <time>2023-07-02T08:58:02Z</time>
      </trkpt>
      <trkpt lat="48.02638" lon="5.43703">
        <ele>391</ele>
        <time>2023-07-02T08:58:26Z</time>
      </trkpt>
      <trkpt lat="48.02654" lon="5.43738">
        <ele>393</ele>
        <time>2023-07-02T08:58:46Z</time>
      </trkpt>
      <trkpt lat="48.02667" lon="5.43778">
        <ele>394</ele>
        <time>2023-07-02T08:59:07Z</time>
      </trkpt>
      <trkpt lat="48.02682" lon="5.43819">
        <ele>395</ele>
        <time>2023-07-02T08:59:28Z</time>
      </trkpt>
      <trkpt lat="48.02691" lon="5.43854">
        <ele>395</ele>
        <time>2023-07-02T08:59:45Z</time>
      </trkpt>
      <trkpt lat="48.02703" lon="5.43901">
        <ele>396</ele>
        <time>2023-07-02T09:00:08Z</time>
      </trkpt>
      <trkpt lat="48.02714" lon="5.4394">
        <ele>396</ele>
        <time>2023-07-02T09:00:28Z</time>
      </trkpt>
      <trkpt lat="48.02723" lon="5.43975">
        <ele>397</ele>
        <time>2023-07-02T09:00:46Z</time>
      </trkpt>
      <trkpt lat="48.02734" lon="5.44015">
        <ele>398</ele>
        <time>2023-07-02T09:01:07Z</time>
      </trkpt>
      <trkpt lat="48.02739" lon="5.44042">
        <ele>397</ele>
        <time>2023-07-02T09:01:26Z</time>
      </trkpt>
      <trkpt lat="48.02741" lon="5.4404">
        <ele>397</ele>
        <time>2023-07-02T09:01:50Z</time>
      </trkpt>
      <trkpt lat="48.02739" lon="5.4404">
        <ele>398</ele>
        <time>2023-07-02T09:02:13Z</time>
      </trkpt>
      <trkpt lat="48.02744" lon="5.44053">
        <ele>398</ele>
        <time>2023-07-02T09:02:40Z</time>
      </trkpt>
      <trkpt lat="48.02754" lon="5.44095">
        <ele>399</ele>
        <time>2023-07-02T09:03:03Z</time>
      </trkpt>
      <trkpt lat="48.02764" lon="5.44137">
        <ele>399</ele>
        <time>2023-07-02T09:03:26Z</time>
      </trkpt>
      <trkpt lat="48.02778" lon="5.44167">
        <ele>400</ele>
        <time>2023-07-02T09:03:44Z</time>
      </trkpt>
      <trkpt lat="48.0279" lon="5.44202">
        <ele>401</ele>
        <time>2023-07-02T09:04:05Z</time>
      </trkpt>
      <trkpt lat="48.02803" lon="5.44217">
        <ele>402</ele>
        <time>2023-07-02T09:04:23Z</time>
      </trkpt>
      <trkpt lat="48.02806" lon="5.44215">
        <ele>402</ele>
        <time>2023-07-02T09:04:40Z</time>
      </trkpt>
      <trkpt lat="48.02811" lon="5.44217">
        <ele>401</ele>
        <time>2023-07-02T09:04:52Z</time>
      </trkpt>
      <trkpt lat="48.02811" lon="5.44232">
        <ele>401</ele>
        <time>2023-07-02T09:05:04Z</time>
      </trkpt>
      <trkpt lat="48.02816" lon="5.44262">
        <ele>401</ele>
        <time>2023-07-02T09:05:22Z</time>
      </trkpt>
      <trkpt lat="48.02827" lon="5.44291">
        <ele>401</ele>
        <time>2023-07-02T09:05:41Z</time>
      </trkpt>
      <trkpt lat="48.02835" lon="5.44322">
        <ele>403</ele>
        <time>2023-07-02T09:06:01Z</time>
      </trkpt>
      <trkpt lat="48.02844" lon="5.44348">
        <ele>403</ele>
        <time>2023-07-02T09:06:18Z</time>
      </trkpt>
      <trkpt lat="48.02856" lon="5.44377">
        <ele>402</ele>
        <time>2023-07-02T09:06:38Z</time>
      </trkpt>
      <trkpt lat="48.02868" lon="5.44405">
        <ele>403</ele>
        <time>2023-07-02T09:06:57Z</time>
      </trkpt>
      <trkpt lat="48.0288" lon="5.4444">
        <ele>403</ele>
        <time>2023-07-02T09:07:20Z</time>
      </trkpt>
      <trkpt lat="48.02884" lon="5.44448">
        <ele>403</ele>
        <time>2023-07-02T09:07:26Z</time>
      </trkpt>
      <trkpt lat="48.0289" lon="5.44458">
        <ele>402</ele>
        <time>2023-07-02T09:07:37Z</time>
      </trkpt>
      <trkpt lat="48.02916" lon="5.44464">
        <ele>402</ele>
        <time>2023-07-02T09:07:58Z</time>
      </trkpt>
      <trkpt lat="48.02937" lon="5.44476">
        <ele>402</ele>
        <time>2023-07-02T09:08:16Z</time>
      </trkpt>
      <trkpt lat="48.0296" lon="5.44488">
        <ele>402</ele>
        <time>2023-07-02T09:08:36Z</time>
      </trkpt>
      <trkpt lat="48.02974" lon="5.44494">
        <ele>402</ele>
        <time>2023-07-02T09:08:49Z</time>
      </trkpt>
      <trkpt lat="48.02995" lon="5.44508">
        <ele>401</ele>
        <time>2023-07-02T09:09:08Z</time>
      </trkpt>
      <trkpt lat="48.03012" lon="5.44516">
        <ele>401</ele>
        <time>2023-07-02T09:09:23Z</time>
      </trkpt>
      <trkpt lat="48.03014" lon="5.44515">
        <ele>401</ele>
        <time>2023-07-02T09:09:25Z</time>
      </trkpt>
      <trkpt lat="48.03038" lon="5.44496">
        <ele>399</ele>
        <time>2023-07-02T09:09:45Z</time>
      </trkpt>
      <trkpt lat="48.03059" lon="5.44509">
        <ele>399</ele>
        <time>2023-07-02T09:10:02Z</time>
      </trkpt>
      <trkpt lat="48.03082" lon="5.44528">
        <ele>398</ele>
        <time>2023-07-02T09:10:21Z</time>
      </trkpt>
      <trkpt lat="48.03108" lon="5.44547">
        <ele>397</ele>
        <time>2023-07-02T09:10:42Z</time>
      </trkpt>
      <trkpt lat="48.03127" lon="5.44568">
        <ele>395</ele>
        <time>2023-07-02T09:11:01Z</time>
      </trkpt>
      <trkpt lat="48.03151" lon="5.44564">
        <ele>393</ele>
        <time>2023-07-02T09:11:19Z</time>
      </trkpt>
      <trkpt lat="48.03168" lon="5.44596">
        <ele>391</ele>
        <time>2023-07-02T09:11:37Z</time>
      </trkpt>
      <trkpt lat="48.03178" lon="5.44626">
        <ele>390</ele>
        <time>2023-07-02T09:11:53Z</time>
      </trkpt>
      <trkpt lat="48.03184" lon="5.4465">
        <ele>388</ele>
        <time>2023-07-02T09:12:06Z</time>
      </trkpt>
      <trkpt lat="48.03192" lon="5.44671">
        <ele>388</ele>
        <time>2023-07-02T09:12:19Z</time>
      </trkpt>
      <trkpt lat="48.03205" lon="5.44705">
        <ele>388</ele>
        <time>2023-07-02T09:12:37Z</time>
      </trkpt>
      <trkpt lat="48.03209" lon="5.44718">
        <ele>388</ele>
        <time>2023-07-02T09:12:44Z</time>
      </trkpt>
      <trkpt lat="48.03212" lon="5.44727">
        <ele>388</ele>
        <time>2023-07-02T09:12:49Z</time>
      </trkpt>
      <trkpt lat="48.03218" lon="5.44738">
        <ele>388</ele>
        <time>2023-07-02T09:12:59Z</time>
      </trkpt>
      <trkpt lat="48.0322" lon="5.44739">
        <ele>388</ele>
        <time>2023-07-02T09:13:01Z</time>
      </trkpt>
      <trkpt lat="48.03231" lon="5.44736">
        <ele>387</ele>
        <time>2023-07-02T09:13:10Z</time>
      </trkpt>
      <trkpt lat="48.03237" lon="5.44735">
        <ele>387</ele>
        <time>2023-07-02T09:13:17Z</time>
      </trkpt>
      <trkpt lat="48.03241" lon="5.44724">
        <ele>388</ele>
        <time>2023-07-02T09:13:24Z</time>
      </trkpt>
      <trkpt lat="48.03242" lon="5.44719">
        <ele>387</ele>
        <time>2023-07-02T09:13:32Z</time>
      </trkpt>
      <trkpt lat="48.03247" lon="5.44713">
        <ele>387</ele>
        <time>2023-07-02T09:13:48Z</time>
      </trkpt>
      <trkpt lat="48.0325" lon="5.44719">
        <ele>387</ele>
        <time>2023-07-02T09:14:06Z</time>
      </trkpt>
    </trkseg>
  </trk>
</gpx>